<?xml version="1.0" encoding="UTF-8" standalone="no" ?>
<gpx xmlns="http://www.topografix.com/GPX/1/1" xmlns:xsi="http://www.w3.org/2001/XMLSchema-instance" xsi:schemaLocation="http://www.topografix.com/GPX/1/1 http://www.topografix.com/GPX/1/1/gpx.xsd" version="1.1" creator="VisuGPX - https://www.visugpx.com">
  <metadata>
    <name>Sortie vélo 30.07.2016</name>
    <desc><![CDATA[mmmmmmmmmm]]></desc>
  </metadata>
  <trk>
    <name><![CDATA[2016-07-30 13:27:30 Chronomètre]]></name>
    <trkseg>
      <trkpt lat="45.15579" lon="5.38299">
        <ele>260.17</ele>
        <time>2016-07-30T11:27:30Z</time>
      </trkpt>
      <trkpt lat="45.15582" lon="5.383">
        <ele>260.17</ele>
        <time>2016-07-30T11:27:44Z</time>
      </trkpt>
      <trkpt lat="45.15582" lon="5.38293">
        <ele>258.73</ele>
        <time>2016-07-30T11:27:48Z</time>
      </trkpt>
      <trkpt lat="45.1558" lon="5.3829">
        <ele>258.73</ele>
        <time>2016-07-30T11:27:49Z</time>
      </trkpt>
      <trkpt lat="45.15578" lon="5.38286">
        <ele>258.25</ele>
        <time>2016-07-30T11:27:50Z</time>
      </trkpt>
      <trkpt lat="45.15577" lon="5.38283">
        <ele>257.77</ele>
        <time>2016-07-30T11:27:51Z</time>
      </trkpt>
      <trkpt lat="45.15564" lon="5.38258">
        <ele>257.29</ele>
        <time>2016-07-30T11:28:04Z</time>
      </trkpt>
      <trkpt lat="45.15565" lon="5.3826">
        <ele>256.81</ele>
        <time>2016-07-30T11:28:21Z</time>
      </trkpt>
      <trkpt lat="45.15563" lon="5.38257">
        <ele>256.81</ele>
        <time>2016-07-30T11:28:28Z</time>
      </trkpt>
      <trkpt lat="45.15558" lon="5.38234">
        <ele>255.85</ele>
        <time>2016-07-30T11:28:34Z</time>
      </trkpt>
      <trkpt lat="45.15558" lon="5.38228">
        <ele>255.85</ele>
        <time>2016-07-30T11:28:35Z</time>
      </trkpt>
      <trkpt lat="45.15558" lon="5.38176">
        <ele>253.44</ele>
        <time>2016-07-30T11:28:42Z</time>
      </trkpt>
      <trkpt lat="45.15561" lon="5.38069">
        <ele>252.48</ele>
        <time>2016-07-30T11:28:58Z</time>
      </trkpt>
      <trkpt lat="45.15545" lon="5.37958">
        <ele>252.48</ele>
        <time>2016-07-30T11:29:16Z</time>
      </trkpt>
      <trkpt lat="45.15538" lon="5.37922">
        <ele>253.44</ele>
        <time>2016-07-30T11:29:22Z</time>
      </trkpt>
      <trkpt lat="45.15538" lon="5.37916">
        <ele>253.44</ele>
        <time>2016-07-30T11:29:23Z</time>
      </trkpt>
      <trkpt lat="45.15524" lon="5.37816">
        <ele>252.96</ele>
        <time>2016-07-30T11:29:39Z</time>
      </trkpt>
      <trkpt lat="45.15518" lon="5.37779">
        <ele>252.96</ele>
        <time>2016-07-30T11:29:45Z</time>
      </trkpt>
      <trkpt lat="45.15516" lon="5.37773">
        <ele>252.96</ele>
        <time>2016-07-30T11:29:46Z</time>
      </trkpt>
      <trkpt lat="45.15514" lon="5.37767">
        <ele>252.96</ele>
        <time>2016-07-30T11:29:47Z</time>
      </trkpt>
      <trkpt lat="45.15512" lon="5.37763">
        <ele>252.96</ele>
        <time>2016-07-30T11:29:48Z</time>
      </trkpt>
      <trkpt lat="45.15508" lon="5.37757">
        <ele>252.96</ele>
        <time>2016-07-30T11:29:49Z</time>
      </trkpt>
      <trkpt lat="45.15506" lon="5.37753">
        <ele>252.96</ele>
        <time>2016-07-30T11:29:50Z</time>
      </trkpt>
      <trkpt lat="45.15504" lon="5.37749">
        <ele>252.96</ele>
        <time>2016-07-30T11:29:51Z</time>
      </trkpt>
      <trkpt lat="45.15502" lon="5.37744">
        <ele>252.96</ele>
        <time>2016-07-30T11:29:52Z</time>
      </trkpt>
      <trkpt lat="45.15501" lon="5.37737">
        <ele>252.96</ele>
        <time>2016-07-30T11:29:53Z</time>
      </trkpt>
      <trkpt lat="45.15502" lon="5.37732">
        <ele>252.96</ele>
        <time>2016-07-30T11:29:54Z</time>
      </trkpt>
      <trkpt lat="45.15502" lon="5.37724">
        <ele>252.96</ele>
        <time>2016-07-30T11:29:55Z</time>
      </trkpt>
      <trkpt lat="45.15503" lon="5.37719">
        <ele>253.44</ele>
        <time>2016-07-30T11:29:56Z</time>
      </trkpt>
      <trkpt lat="45.15503" lon="5.37693">
        <ele>253.44</ele>
        <time>2016-07-30T11:30:00Z</time>
      </trkpt>
      <trkpt lat="45.15486" lon="5.37554">
        <ele>253.44</ele>
        <time>2016-07-30T11:30:21Z</time>
      </trkpt>
      <trkpt lat="45.15465" lon="5.37404">
        <ele>252.96</ele>
        <time>2016-07-30T11:30:41Z</time>
      </trkpt>
      <trkpt lat="45.15463" lon="5.37387">
        <ele>252</ele>
        <time>2016-07-30T11:30:43Z</time>
      </trkpt>
      <trkpt lat="45.15438" lon="5.37209">
        <ele>250.56</ele>
        <time>2016-07-30T11:31:05Z</time>
      </trkpt>
      <trkpt lat="45.15411" lon="5.37029">
        <ele>246.72</ele>
        <time>2016-07-30T11:31:24Z</time>
      </trkpt>
      <trkpt lat="45.15378" lon="5.36791">
        <ele>244.31</ele>
        <time>2016-07-30T11:31:47Z</time>
      </trkpt>
      <trkpt lat="45.15368" lon="5.36669">
        <ele>240.95</ele>
        <time>2016-07-30T11:31:58Z</time>
      </trkpt>
      <trkpt lat="45.15369" lon="5.36656">
        <ele>239.51</ele>
        <time>2016-07-30T11:31:59Z</time>
      </trkpt>
      <trkpt lat="45.15371" lon="5.36644">
        <ele>239.51</ele>
        <time>2016-07-30T11:32:00Z</time>
      </trkpt>
      <trkpt lat="45.15375" lon="5.3663">
        <ele>239.02</ele>
        <time>2016-07-30T11:32:01Z</time>
      </trkpt>
      <trkpt lat="45.15378" lon="5.3662">
        <ele>239.02</ele>
        <time>2016-07-30T11:32:02Z</time>
      </trkpt>
      <trkpt lat="45.15382" lon="5.36609">
        <ele>238.06</ele>
        <time>2016-07-30T11:32:03Z</time>
      </trkpt>
      <trkpt lat="45.15459" lon="5.36418">
        <ele>238.54</ele>
        <time>2016-07-30T11:32:22Z</time>
      </trkpt>
      <trkpt lat="45.1551" lon="5.36287">
        <ele>234.7</ele>
        <time>2016-07-30T11:32:35Z</time>
      </trkpt>
      <trkpt lat="45.15533" lon="5.36221">
        <ele>235.66</ele>
        <time>2016-07-30T11:32:41Z</time>
      </trkpt>
      <trkpt lat="45.15545" lon="5.36204">
        <ele>236.14</ele>
        <time>2016-07-30T11:32:45Z</time>
      </trkpt>
      <trkpt lat="45.15549" lon="5.36205">
        <ele>236.14</ele>
        <time>2016-07-30T11:32:46Z</time>
      </trkpt>
      <trkpt lat="45.15608" lon="5.36265">
        <ele>234.7</ele>
        <time>2016-07-30T11:32:54Z</time>
      </trkpt>
      <trkpt lat="45.15714" lon="5.3637">
        <ele>233.26</ele>
        <time>2016-07-30T11:33:12Z</time>
      </trkpt>
      <trkpt lat="45.15803" lon="5.3643">
        <ele>231.33</ele>
        <time>2016-07-30T11:33:26Z</time>
      </trkpt>
      <trkpt lat="45.15909" lon="5.36507">
        <ele>229.89</ele>
        <time>2016-07-30T11:33:42Z</time>
      </trkpt>
      <trkpt lat="45.16001" lon="5.36644">
        <ele>227.97</ele>
        <time>2016-07-30T11:34:00Z</time>
      </trkpt>
      <trkpt lat="45.1612" lon="5.36772">
        <ele>226.53</ele>
        <time>2016-07-30T11:34:21Z</time>
      </trkpt>
      <trkpt lat="45.16223" lon="5.36869">
        <ele>225.09</ele>
        <time>2016-07-30T11:34:37Z</time>
      </trkpt>
      <trkpt lat="45.16312" lon="5.36995">
        <ele>225.09</ele>
        <time>2016-07-30T11:34:56Z</time>
      </trkpt>
      <trkpt lat="45.16397" lon="5.37127">
        <ele>227.01</ele>
        <time>2016-07-30T11:35:16Z</time>
      </trkpt>
      <trkpt lat="45.1648" lon="5.37267">
        <ele>228.45</ele>
        <time>2016-07-30T11:35:37Z</time>
      </trkpt>
      <trkpt lat="45.16558" lon="5.37415">
        <ele>229.41</ele>
        <time>2016-07-30T11:35:59Z</time>
      </trkpt>
      <trkpt lat="45.16634" lon="5.37543">
        <ele>231.81</ele>
        <time>2016-07-30T11:36:21Z</time>
      </trkpt>
      <trkpt lat="45.16714" lon="5.37638">
        <ele>232.3</ele>
        <time>2016-07-30T11:36:41Z</time>
      </trkpt>
      <trkpt lat="45.16781" lon="5.37754">
        <ele>233.74</ele>
        <time>2016-07-30T11:37:01Z</time>
      </trkpt>
      <trkpt lat="45.16855" lon="5.37863">
        <ele>234.7</ele>
        <time>2016-07-30T11:37:21Z</time>
      </trkpt>
      <trkpt lat="45.16926" lon="5.37966">
        <ele>235.18</ele>
        <time>2016-07-30T11:37:38Z</time>
      </trkpt>
      <trkpt lat="45.16949" lon="5.38045">
        <ele>233.74</ele>
        <time>2016-07-30T11:37:47Z</time>
      </trkpt>
      <trkpt lat="45.17011" lon="5.38193">
        <ele>232.78</ele>
        <time>2016-07-30T11:38:05Z</time>
      </trkpt>
      <trkpt lat="45.17055" lon="5.38245">
        <ele>234.22</ele>
        <time>2016-07-30T11:38:14Z</time>
      </trkpt>
      <trkpt lat="45.17129" lon="5.38272">
        <ele>234.7</ele>
        <time>2016-07-30T11:38:27Z</time>
      </trkpt>
      <trkpt lat="45.17184" lon="5.38267">
        <ele>238.06</ele>
        <time>2016-07-30T11:38:38Z</time>
      </trkpt>
      <trkpt lat="45.17277" lon="5.38248">
        <ele>240.95</ele>
        <time>2016-07-30T11:38:58Z</time>
      </trkpt>
      <trkpt lat="45.17394" lon="5.38254">
        <ele>241.91</ele>
        <time>2016-07-30T11:39:21Z</time>
      </trkpt>
      <trkpt lat="45.17476" lon="5.3832">
        <ele>242.39</ele>
        <time>2016-07-30T11:39:38Z</time>
      </trkpt>
      <trkpt lat="45.17581" lon="5.38441">
        <ele>244.79</ele>
        <time>2016-07-30T11:40:03Z</time>
      </trkpt>
      <trkpt lat="45.1766" lon="5.38478">
        <ele>245.27</ele>
        <time>2016-07-30T11:40:18Z</time>
      </trkpt>
      <trkpt lat="45.17746" lon="5.38475">
        <ele>245.75</ele>
        <time>2016-07-30T11:40:34Z</time>
      </trkpt>
      <trkpt lat="45.17833" lon="5.3846">
        <ele>246.23</ele>
        <time>2016-07-30T11:40:51Z</time>
      </trkpt>
      <trkpt lat="45.17905" lon="5.3843">
        <ele>246.72</ele>
        <time>2016-07-30T11:41:05Z</time>
      </trkpt>
      <trkpt lat="45.17994" lon="5.38403">
        <ele>247.68</ele>
        <time>2016-07-30T11:41:21Z</time>
      </trkpt>
      <trkpt lat="45.18102" lon="5.38423">
        <ele>248.64</ele>
        <time>2016-07-30T11:41:40Z</time>
      </trkpt>
      <trkpt lat="45.18144" lon="5.38425">
        <ele>249.6</ele>
        <time>2016-07-30T11:41:50Z</time>
      </trkpt>
      <trkpt lat="45.18142" lon="5.38423">
        <ele>249.6</ele>
        <time>2016-07-30T11:41:51Z</time>
      </trkpt>
      <trkpt lat="45.18122" lon="5.38416">
        <ele>249.6</ele>
        <time>2016-07-30T11:41:59Z</time>
      </trkpt>
      <trkpt lat="45.18119" lon="5.38418">
        <ele>249.6</ele>
        <time>2016-07-30T11:42:00Z</time>
      </trkpt>
      <trkpt lat="45.18124" lon="5.38422">
        <ele>249.12</ele>
        <time>2016-07-30T11:42:10Z</time>
      </trkpt>
      <trkpt lat="45.18129" lon="5.38422">
        <ele>249.12</ele>
        <time>2016-07-30T11:42:13Z</time>
      </trkpt>
      <trkpt lat="45.18176" lon="5.38436">
        <ele>249.12</ele>
        <time>2016-07-30T11:42:29Z</time>
      </trkpt>
      <trkpt lat="45.18242" lon="5.38429">
        <ele>250.08</ele>
        <time>2016-07-30T11:42:45Z</time>
      </trkpt>
      <trkpt lat="45.18282" lon="5.38429">
        <ele>250.08</ele>
        <time>2016-07-30T11:42:50Z</time>
      </trkpt>
      <trkpt lat="45.1829" lon="5.38431">
        <ele>250.08</ele>
        <time>2016-07-30T11:42:51Z</time>
      </trkpt>
      <trkpt lat="45.18363" lon="5.38474">
        <ele>251.52</ele>
        <time>2016-07-30T11:43:03Z</time>
      </trkpt>
      <trkpt lat="45.18432" lon="5.38538">
        <ele>252.96</ele>
        <time>2016-07-30T11:43:20Z</time>
      </trkpt>
      <trkpt lat="45.18522" lon="5.38585">
        <ele>254.89</ele>
        <time>2016-07-30T11:43:39Z</time>
      </trkpt>
      <trkpt lat="45.18636" lon="5.38656">
        <ele>256.33</ele>
        <time>2016-07-30T11:44:01Z</time>
      </trkpt>
      <trkpt lat="45.18735" lon="5.38715">
        <ele>256.81</ele>
        <time>2016-07-30T11:44:21Z</time>
      </trkpt>
      <trkpt lat="45.18834" lon="5.38767">
        <ele>258.25</ele>
        <time>2016-07-30T11:44:41Z</time>
      </trkpt>
      <trkpt lat="45.18936" lon="5.38815">
        <ele>260.17</ele>
        <time>2016-07-30T11:45:00Z</time>
      </trkpt>
      <trkpt lat="45.19022" lon="5.38864">
        <ele>260.65</ele>
        <time>2016-07-30T11:45:17Z</time>
      </trkpt>
      <trkpt lat="45.19044" lon="5.38878">
        <ele>260.65</ele>
        <time>2016-07-30T11:45:21Z</time>
      </trkpt>
      <trkpt lat="45.19049" lon="5.38884">
        <ele>260.65</ele>
        <time>2016-07-30T11:45:22Z</time>
      </trkpt>
      <trkpt lat="45.19053" lon="5.3889">
        <ele>260.65</ele>
        <time>2016-07-30T11:45:23Z</time>
      </trkpt>
      <trkpt lat="45.19056" lon="5.38897">
        <ele>260.65</ele>
        <time>2016-07-30T11:45:24Z</time>
      </trkpt>
      <trkpt lat="45.19059" lon="5.38906">
        <ele>260.65</ele>
        <time>2016-07-30T11:45:25Z</time>
      </trkpt>
      <trkpt lat="45.1906" lon="5.38912">
        <ele>260.65</ele>
        <time>2016-07-30T11:45:26Z</time>
      </trkpt>
      <trkpt lat="45.19071" lon="5.38965">
        <ele>261.14</ele>
        <time>2016-07-30T11:45:33Z</time>
      </trkpt>
      <trkpt lat="45.19073" lon="5.38971">
        <ele>261.14</ele>
        <time>2016-07-30T11:45:34Z</time>
      </trkpt>
      <trkpt lat="45.19077" lon="5.38976">
        <ele>261.14</ele>
        <time>2016-07-30T11:45:35Z</time>
      </trkpt>
      <trkpt lat="45.1908" lon="5.3898">
        <ele>261.14</ele>
        <time>2016-07-30T11:45:36Z</time>
      </trkpt>
      <trkpt lat="45.19084" lon="5.38983">
        <ele>261.14</ele>
        <time>2016-07-30T11:45:37Z</time>
      </trkpt>
      <trkpt lat="45.19088" lon="5.38985">
        <ele>261.62</ele>
        <time>2016-07-30T11:45:38Z</time>
      </trkpt>
      <trkpt lat="45.19092" lon="5.38988">
        <ele>261.62</ele>
        <time>2016-07-30T11:45:39Z</time>
      </trkpt>
      <trkpt lat="45.19156" lon="5.3903">
        <ele>263.54</ele>
        <time>2016-07-30T11:45:54Z</time>
      </trkpt>
      <trkpt lat="45.19214" lon="5.39099">
        <ele>266.9</ele>
        <time>2016-07-30T11:46:11Z</time>
      </trkpt>
      <trkpt lat="45.19266" lon="5.39151">
        <ele>270.27</ele>
        <time>2016-07-30T11:46:27Z</time>
      </trkpt>
      <trkpt lat="45.19299" lon="5.39184">
        <ele>271.23</ele>
        <time>2016-07-30T11:46:42Z</time>
      </trkpt>
      <trkpt lat="45.19328" lon="5.39231">
        <ele>269.79</ele>
        <time>2016-07-30T11:46:54Z</time>
      </trkpt>
      <trkpt lat="45.19327" lon="5.39237">
        <ele>269.79</ele>
        <time>2016-07-30T11:46:55Z</time>
      </trkpt>
      <trkpt lat="45.19326" lon="5.39243">
        <ele>269.31</ele>
        <time>2016-07-30T11:46:56Z</time>
      </trkpt>
      <trkpt lat="45.19326" lon="5.39249">
        <ele>269.31</ele>
        <time>2016-07-30T11:46:57Z</time>
      </trkpt>
      <trkpt lat="45.19326" lon="5.39255">
        <ele>269.31</ele>
        <time>2016-07-30T11:46:58Z</time>
      </trkpt>
      <trkpt lat="45.19328" lon="5.39261">
        <ele>269.31</ele>
        <time>2016-07-30T11:46:59Z</time>
      </trkpt>
      <trkpt lat="45.19329" lon="5.39265">
        <ele>269.31</ele>
        <time>2016-07-30T11:47:00Z</time>
      </trkpt>
      <trkpt lat="45.19332" lon="5.3927">
        <ele>269.31</ele>
        <time>2016-07-30T11:47:01Z</time>
      </trkpt>
      <trkpt lat="45.19336" lon="5.39275">
        <ele>269.31</ele>
        <time>2016-07-30T11:47:02Z</time>
      </trkpt>
      <trkpt lat="45.19339" lon="5.39278">
        <ele>269.31</ele>
        <time>2016-07-30T11:47:03Z</time>
      </trkpt>
      <trkpt lat="45.19348" lon="5.39288">
        <ele>269.31</ele>
        <time>2016-07-30T11:47:05Z</time>
      </trkpt>
      <trkpt lat="45.19352" lon="5.39293">
        <ele>269.31</ele>
        <time>2016-07-30T11:47:06Z</time>
      </trkpt>
      <trkpt lat="45.19354" lon="5.39299">
        <ele>269.31</ele>
        <time>2016-07-30T11:47:07Z</time>
      </trkpt>
      <trkpt lat="45.19358" lon="5.39307">
        <ele>268.35</ele>
        <time>2016-07-30T11:47:08Z</time>
      </trkpt>
      <trkpt lat="45.1936" lon="5.39313">
        <ele>267.86</ele>
        <time>2016-07-30T11:47:09Z</time>
      </trkpt>
      <trkpt lat="45.19363" lon="5.39321">
        <ele>267.38</ele>
        <time>2016-07-30T11:47:10Z</time>
      </trkpt>
      <trkpt lat="45.19365" lon="5.39331">
        <ele>266.9</ele>
        <time>2016-07-30T11:47:11Z</time>
      </trkpt>
      <trkpt lat="45.19366" lon="5.3934">
        <ele>266.9</ele>
        <time>2016-07-30T11:47:12Z</time>
      </trkpt>
      <trkpt lat="45.19367" lon="5.39349">
        <ele>266.42</ele>
        <time>2016-07-30T11:47:13Z</time>
      </trkpt>
      <trkpt lat="45.19367" lon="5.3936">
        <ele>266.42</ele>
        <time>2016-07-30T11:47:14Z</time>
      </trkpt>
      <trkpt lat="45.19372" lon="5.39438">
        <ele>264.5</ele>
        <time>2016-07-30T11:47:22Z</time>
      </trkpt>
      <trkpt lat="45.19374" lon="5.39447">
        <ele>264.02</ele>
        <time>2016-07-30T11:47:23Z</time>
      </trkpt>
      <trkpt lat="45.19377" lon="5.39455">
        <ele>264.02</ele>
        <time>2016-07-30T11:47:24Z</time>
      </trkpt>
      <trkpt lat="45.19381" lon="5.39462">
        <ele>264.02</ele>
        <time>2016-07-30T11:47:25Z</time>
      </trkpt>
      <trkpt lat="45.19386" lon="5.39468">
        <ele>263.54</ele>
        <time>2016-07-30T11:47:26Z</time>
      </trkpt>
      <trkpt lat="45.1939" lon="5.3947">
        <ele>264.02</ele>
        <time>2016-07-30T11:47:27Z</time>
      </trkpt>
      <trkpt lat="45.19396" lon="5.39472">
        <ele>264.02</ele>
        <time>2016-07-30T11:47:28Z</time>
      </trkpt>
      <trkpt lat="45.19403" lon="5.39473">
        <ele>264.02</ele>
        <time>2016-07-30T11:47:29Z</time>
      </trkpt>
      <trkpt lat="45.19409" lon="5.39474">
        <ele>264.02</ele>
        <time>2016-07-30T11:47:30Z</time>
      </trkpt>
      <trkpt lat="45.19415" lon="5.39477">
        <ele>264.02</ele>
        <time>2016-07-30T11:47:31Z</time>
      </trkpt>
      <trkpt lat="45.19422" lon="5.395">
        <ele>264.02</ele>
        <time>2016-07-30T11:47:35Z</time>
      </trkpt>
      <trkpt lat="45.19405" lon="5.39538">
        <ele>263.54</ele>
        <time>2016-07-30T11:47:41Z</time>
      </trkpt>
      <trkpt lat="45.19409" lon="5.39573">
        <ele>263.54</ele>
        <time>2016-07-30T11:47:47Z</time>
      </trkpt>
      <trkpt lat="45.19485" lon="5.39642">
        <ele>264.5</ele>
        <time>2016-07-30T11:48:02Z</time>
      </trkpt>
      <trkpt lat="45.19516" lon="5.39676">
        <ele>264.5</ele>
        <time>2016-07-30T11:48:09Z</time>
      </trkpt>
      <trkpt lat="45.19555" lon="5.39737">
        <ele>264.5</ele>
        <time>2016-07-30T11:48:19Z</time>
      </trkpt>
      <trkpt lat="45.19615" lon="5.39755">
        <ele>264.5</ele>
        <time>2016-07-30T11:48:30Z</time>
      </trkpt>
      <trkpt lat="45.19636" lon="5.39756">
        <ele>264.5</ele>
        <time>2016-07-30T11:48:33Z</time>
      </trkpt>
      <trkpt lat="45.19658" lon="5.3975">
        <ele>264.5</ele>
        <time>2016-07-30T11:48:37Z</time>
      </trkpt>
      <trkpt lat="45.19675" lon="5.39735">
        <ele>264.5</ele>
        <time>2016-07-30T11:48:41Z</time>
      </trkpt>
      <trkpt lat="45.19687" lon="5.39722">
        <ele>264.5</ele>
        <time>2016-07-30T11:48:44Z</time>
      </trkpt>
      <trkpt lat="45.19705" lon="5.39721">
        <ele>264.5</ele>
        <time>2016-07-30T11:48:48Z</time>
      </trkpt>
      <trkpt lat="45.19811" lon="5.39806">
        <ele>265.94</ele>
        <time>2016-07-30T11:49:09Z</time>
      </trkpt>
      <trkpt lat="45.19913" lon="5.39901">
        <ele>266.9</ele>
        <time>2016-07-30T11:49:30Z</time>
      </trkpt>
      <trkpt lat="45.19997" lon="5.39977">
        <ele>268.35</ele>
        <time>2016-07-30T11:49:48Z</time>
      </trkpt>
      <trkpt lat="45.20093" lon="5.40069">
        <ele>269.31</ele>
        <time>2016-07-30T11:50:09Z</time>
      </trkpt>
      <trkpt lat="45.20176" lon="5.40153">
        <ele>271.71</ele>
        <time>2016-07-30T11:50:30Z</time>
      </trkpt>
      <trkpt lat="45.20263" lon="5.40236">
        <ele>273.63</ele>
        <time>2016-07-30T11:50:51Z</time>
      </trkpt>
      <trkpt lat="45.20309" lon="5.40281">
        <ele>275.56</ele>
        <time>2016-07-30T11:51:04Z</time>
      </trkpt>
      <trkpt lat="45.20315" lon="5.40296">
        <ele>275.56</ele>
        <time>2016-07-30T11:51:07Z</time>
      </trkpt>
      <trkpt lat="45.20324" lon="5.40313">
        <ele>275.56</ele>
        <time>2016-07-30T11:51:13Z</time>
      </trkpt>
      <trkpt lat="45.20326" lon="5.40312">
        <ele>275.56</ele>
        <time>2016-07-30T11:51:14Z</time>
      </trkpt>
      <trkpt lat="45.20328" lon="5.40311">
        <ele>275.56</ele>
        <time>2016-07-30T11:51:15Z</time>
      </trkpt>
      <trkpt lat="45.20329" lon="5.40308">
        <ele>275.56</ele>
        <time>2016-07-30T11:51:16Z</time>
      </trkpt>
      <trkpt lat="45.20329" lon="5.40306">
        <ele>276.04</ele>
        <time>2016-07-30T11:51:17Z</time>
      </trkpt>
      <trkpt lat="45.2033" lon="5.40303">
        <ele>275.56</ele>
        <time>2016-07-30T11:51:18Z</time>
      </trkpt>
      <trkpt lat="45.20332" lon="5.403">
        <ele>275.56</ele>
        <time>2016-07-30T11:51:19Z</time>
      </trkpt>
      <trkpt lat="45.20333" lon="5.40297">
        <ele>275.56</ele>
        <time>2016-07-30T11:51:20Z</time>
      </trkpt>
      <trkpt lat="45.20351" lon="5.40265">
        <ele>276.04</ele>
        <time>2016-07-30T11:51:29Z</time>
      </trkpt>
      <trkpt lat="45.20355" lon="5.40262">
        <ele>276.04</ele>
        <time>2016-07-30T11:51:30Z</time>
      </trkpt>
      <trkpt lat="45.20359" lon="5.4026">
        <ele>276.04</ele>
        <time>2016-07-30T11:51:31Z</time>
      </trkpt>
      <trkpt lat="45.20364" lon="5.40258">
        <ele>276.04</ele>
        <time>2016-07-30T11:51:32Z</time>
      </trkpt>
      <trkpt lat="45.20367" lon="5.40257">
        <ele>276.04</ele>
        <time>2016-07-30T11:51:33Z</time>
      </trkpt>
      <trkpt lat="45.20386" lon="5.40248">
        <ele>276.04</ele>
        <time>2016-07-30T11:51:37Z</time>
      </trkpt>
      <trkpt lat="45.2039" lon="5.40245">
        <ele>276.04</ele>
        <time>2016-07-30T11:51:38Z</time>
      </trkpt>
      <trkpt lat="45.20395" lon="5.4024">
        <ele>276.04</ele>
        <time>2016-07-30T11:51:39Z</time>
      </trkpt>
      <trkpt lat="45.20398" lon="5.40236">
        <ele>276.04</ele>
        <time>2016-07-30T11:51:40Z</time>
      </trkpt>
      <trkpt lat="45.20402" lon="5.40232">
        <ele>276.04</ele>
        <time>2016-07-30T11:51:41Z</time>
      </trkpt>
      <trkpt lat="45.20471" lon="5.40143">
        <ele>276.52</ele>
        <time>2016-07-30T11:51:59Z</time>
      </trkpt>
      <trkpt lat="45.20547" lon="5.40076">
        <ele>277.96</ele>
        <time>2016-07-30T11:52:17Z</time>
      </trkpt>
      <trkpt lat="45.20615" lon="5.40004">
        <ele>280.36</ele>
        <time>2016-07-30T11:52:34Z</time>
      </trkpt>
      <trkpt lat="45.20652" lon="5.39952">
        <ele>282.77</ele>
        <time>2016-07-30T11:52:47Z</time>
      </trkpt>
      <trkpt lat="45.2069" lon="5.39958">
        <ele>282.28</ele>
        <time>2016-07-30T11:52:58Z</time>
      </trkpt>
      <trkpt lat="45.2074" lon="5.39977">
        <ele>281.32</ele>
        <time>2016-07-30T11:53:08Z</time>
      </trkpt>
      <trkpt lat="45.20831" lon="5.40008">
        <ele>281.32</ele>
        <time>2016-07-30T11:53:25Z</time>
      </trkpt>
      <trkpt lat="45.20868" lon="5.40022">
        <ele>280.84</ele>
        <time>2016-07-30T11:53:31Z</time>
      </trkpt>
      <trkpt lat="45.20885" lon="5.40025">
        <ele>280.36</ele>
        <time>2016-07-30T11:53:34Z</time>
      </trkpt>
      <trkpt lat="45.20891" lon="5.40029">
        <ele>279.88</ele>
        <time>2016-07-30T11:53:35Z</time>
      </trkpt>
      <trkpt lat="45.20899" lon="5.40039">
        <ele>279.88</ele>
        <time>2016-07-30T11:53:36Z</time>
      </trkpt>
      <trkpt lat="45.20906" lon="5.40048">
        <ele>279.88</ele>
        <time>2016-07-30T11:53:37Z</time>
      </trkpt>
      <trkpt lat="45.20912" lon="5.40055">
        <ele>279.88</ele>
        <time>2016-07-30T11:53:38Z</time>
      </trkpt>
      <trkpt lat="45.20941" lon="5.40093">
        <ele>280.84</ele>
        <time>2016-07-30T11:53:44Z</time>
      </trkpt>
      <trkpt lat="45.20945" lon="5.40102">
        <ele>280.84</ele>
        <time>2016-07-30T11:53:45Z</time>
      </trkpt>
      <trkpt lat="45.20949" lon="5.4011">
        <ele>280.84</ele>
        <time>2016-07-30T11:53:46Z</time>
      </trkpt>
      <trkpt lat="45.2099" lon="5.40233">
        <ele>283.25</ele>
        <time>2016-07-30T11:54:03Z</time>
      </trkpt>
      <trkpt lat="45.21034" lon="5.40318">
        <ele>287.09</ele>
        <time>2016-07-30T11:54:17Z</time>
      </trkpt>
      <trkpt lat="45.21044" lon="5.40338">
        <ele>285.17</ele>
        <time>2016-07-30T11:54:20Z</time>
      </trkpt>
      <trkpt lat="45.21071" lon="5.40388">
        <ele>283.73</ele>
        <time>2016-07-30T11:54:27Z</time>
      </trkpt>
      <trkpt lat="45.21118" lon="5.4051">
        <ele>281.8</ele>
        <time>2016-07-30T11:54:43Z</time>
      </trkpt>
      <trkpt lat="45.21146" lon="5.40615">
        <ele>279.4</ele>
        <time>2016-07-30T11:54:56Z</time>
      </trkpt>
      <trkpt lat="45.21192" lon="5.40789">
        <ele>276.04</ele>
        <time>2016-07-30T11:55:13Z</time>
      </trkpt>
      <trkpt lat="45.21223" lon="5.40938">
        <ele>275.07</ele>
        <time>2016-07-30T11:55:28Z</time>
      </trkpt>
      <trkpt lat="45.21223" lon="5.40945">
        <ele>276.52</ele>
        <time>2016-07-30T11:55:30Z</time>
      </trkpt>
      <trkpt lat="45.21219" lon="5.40956">
        <ele>276.52</ele>
        <time>2016-07-30T11:55:33Z</time>
      </trkpt>
      <trkpt lat="45.21215" lon="5.40962">
        <ele>275.07</ele>
        <time>2016-07-30T11:55:34Z</time>
      </trkpt>
      <trkpt lat="45.21211" lon="5.40966">
        <ele>275.07</ele>
        <time>2016-07-30T11:55:35Z</time>
      </trkpt>
      <trkpt lat="45.21207" lon="5.40968">
        <ele>275.07</ele>
        <time>2016-07-30T11:55:36Z</time>
      </trkpt>
      <trkpt lat="45.21202" lon="5.40971">
        <ele>274.59</ele>
        <time>2016-07-30T11:55:37Z</time>
      </trkpt>
      <trkpt lat="45.21191" lon="5.40978">
        <ele>273.63</ele>
        <time>2016-07-30T11:55:39Z</time>
      </trkpt>
      <trkpt lat="45.21136" lon="5.41021">
        <ele>270.75</ele>
        <time>2016-07-30T11:55:48Z</time>
      </trkpt>
      <trkpt lat="45.21085" lon="5.41064">
        <ele>269.79</ele>
        <time>2016-07-30T11:55:56Z</time>
      </trkpt>
      <trkpt lat="45.21074" lon="5.41078">
        <ele>269.79</ele>
        <time>2016-07-30T11:55:58Z</time>
      </trkpt>
      <trkpt lat="45.21071" lon="5.41086">
        <ele>269.79</ele>
        <time>2016-07-30T11:55:59Z</time>
      </trkpt>
      <trkpt lat="45.21069" lon="5.41093">
        <ele>269.79</ele>
        <time>2016-07-30T11:56:00Z</time>
      </trkpt>
      <trkpt lat="45.21068" lon="5.41101">
        <ele>269.79</ele>
        <time>2016-07-30T11:56:01Z</time>
      </trkpt>
      <trkpt lat="45.21068" lon="5.41112">
        <ele>269.79</ele>
        <time>2016-07-30T11:56:03Z</time>
      </trkpt>
      <trkpt lat="45.21064" lon="5.41292">
        <ele>269.79</ele>
        <time>2016-07-30T11:56:22Z</time>
      </trkpt>
      <trkpt lat="45.2106" lon="5.41485">
        <ele>269.79</ele>
        <time>2016-07-30T11:56:44Z</time>
      </trkpt>
      <trkpt lat="45.2106" lon="5.41494">
        <ele>269.79</ele>
        <time>2016-07-30T11:56:45Z</time>
      </trkpt>
      <trkpt lat="45.21062" lon="5.41505">
        <ele>269.79</ele>
        <time>2016-07-30T11:56:46Z</time>
      </trkpt>
      <trkpt lat="45.21063" lon="5.41512">
        <ele>269.79</ele>
        <time>2016-07-30T11:56:47Z</time>
      </trkpt>
      <trkpt lat="45.21065" lon="5.41521">
        <ele>269.79</ele>
        <time>2016-07-30T11:56:48Z</time>
      </trkpt>
      <trkpt lat="45.21071" lon="5.41539">
        <ele>271.71</ele>
        <time>2016-07-30T11:56:50Z</time>
      </trkpt>
      <trkpt lat="45.21077" lon="5.41557">
        <ele>268.83</ele>
        <time>2016-07-30T11:56:52Z</time>
      </trkpt>
      <trkpt lat="45.21124" lon="5.4173">
        <ele>270.27</ele>
        <time>2016-07-30T11:57:13Z</time>
      </trkpt>
      <trkpt lat="45.2119" lon="5.41842">
        <ele>270.75</ele>
        <time>2016-07-30T11:57:31Z</time>
      </trkpt>
      <trkpt lat="45.21203" lon="5.41865">
        <ele>272.19</ele>
        <time>2016-07-30T11:57:36Z</time>
      </trkpt>
      <trkpt lat="45.21204" lon="5.41871">
        <ele>272.19</ele>
        <time>2016-07-30T11:57:37Z</time>
      </trkpt>
      <trkpt lat="45.21205" lon="5.41878">
        <ele>272.19</ele>
        <time>2016-07-30T11:57:38Z</time>
      </trkpt>
      <trkpt lat="45.21205" lon="5.41886">
        <ele>270.75</ele>
        <time>2016-07-30T11:57:39Z</time>
      </trkpt>
      <trkpt lat="45.21204" lon="5.41893">
        <ele>270.27</ele>
        <time>2016-07-30T11:57:40Z</time>
      </trkpt>
      <trkpt lat="45.21203" lon="5.41903">
        <ele>268.83</ele>
        <time>2016-07-30T11:57:41Z</time>
      </trkpt>
      <trkpt lat="45.21202" lon="5.4191">
        <ele>268.83</ele>
        <time>2016-07-30T11:57:42Z</time>
      </trkpt>
      <trkpt lat="45.21183" lon="5.42006">
        <ele>266.9</ele>
        <time>2016-07-30T11:57:55Z</time>
      </trkpt>
      <trkpt lat="45.21191" lon="5.42072">
        <ele>264.98</ele>
        <time>2016-07-30T11:58:07Z</time>
      </trkpt>
      <trkpt lat="45.21197" lon="5.42124">
        <ele>261.62</ele>
        <time>2016-07-30T11:58:12Z</time>
      </trkpt>
      <trkpt lat="45.21232" lon="5.42297">
        <ele>259.69</ele>
        <time>2016-07-30T11:58:29Z</time>
      </trkpt>
      <trkpt lat="45.21236" lon="5.42304">
        <ele>261.14</ele>
        <time>2016-07-30T11:58:30Z</time>
      </trkpt>
      <trkpt lat="45.21241" lon="5.42318">
        <ele>261.62</ele>
        <time>2016-07-30T11:58:33Z</time>
      </trkpt>
      <trkpt lat="45.21241" lon="5.42322">
        <ele>261.62</ele>
        <time>2016-07-30T11:58:34Z</time>
      </trkpt>
      <trkpt lat="45.2124" lon="5.42327">
        <ele>261.62</ele>
        <time>2016-07-30T11:58:35Z</time>
      </trkpt>
      <trkpt lat="45.21237" lon="5.42331">
        <ele>261.62</ele>
        <time>2016-07-30T11:58:36Z</time>
      </trkpt>
      <trkpt lat="45.21235" lon="5.42334">
        <ele>261.62</ele>
        <time>2016-07-30T11:58:37Z</time>
      </trkpt>
      <trkpt lat="45.21231" lon="5.42338">
        <ele>261.62</ele>
        <time>2016-07-30T11:58:38Z</time>
      </trkpt>
      <trkpt lat="45.21227" lon="5.42342">
        <ele>261.62</ele>
        <time>2016-07-30T11:58:39Z</time>
      </trkpt>
      <trkpt lat="45.21211" lon="5.42359">
        <ele>261.62</ele>
        <time>2016-07-30T11:58:43Z</time>
      </trkpt>
      <trkpt lat="45.21209" lon="5.42365">
        <ele>261.62</ele>
        <time>2016-07-30T11:58:44Z</time>
      </trkpt>
      <trkpt lat="45.21208" lon="5.42372">
        <ele>261.62</ele>
        <time>2016-07-30T11:58:45Z</time>
      </trkpt>
      <trkpt lat="45.21208" lon="5.42379">
        <ele>261.62</ele>
        <time>2016-07-30T11:58:46Z</time>
      </trkpt>
      <trkpt lat="45.21209" lon="5.42384">
        <ele>261.62</ele>
        <time>2016-07-30T11:58:47Z</time>
      </trkpt>
      <trkpt lat="45.21211" lon="5.42391">
        <ele>261.62</ele>
        <time>2016-07-30T11:58:48Z</time>
      </trkpt>
      <trkpt lat="45.21213" lon="5.42397">
        <ele>261.62</ele>
        <time>2016-07-30T11:58:49Z</time>
      </trkpt>
      <trkpt lat="45.21259" lon="5.42529">
        <ele>260.17</ele>
        <time>2016-07-30T11:59:09Z</time>
      </trkpt>
      <trkpt lat="45.21315" lon="5.42676">
        <ele>263.06</ele>
        <time>2016-07-30T11:59:32Z</time>
      </trkpt>
      <trkpt lat="45.21378" lon="5.42826">
        <ele>264.02</ele>
        <time>2016-07-30T11:59:55Z</time>
      </trkpt>
      <trkpt lat="45.21379" lon="5.42831">
        <ele>264.02</ele>
        <time>2016-07-30T11:59:56Z</time>
      </trkpt>
      <trkpt lat="45.21378" lon="5.42837">
        <ele>264.02</ele>
        <time>2016-07-30T11:59:57Z</time>
      </trkpt>
      <trkpt lat="45.21377" lon="5.42841">
        <ele>264.02</ele>
        <time>2016-07-30T11:59:58Z</time>
      </trkpt>
      <trkpt lat="45.21375" lon="5.42847">
        <ele>264.02</ele>
        <time>2016-07-30T11:59:59Z</time>
      </trkpt>
      <trkpt lat="45.21372" lon="5.42853">
        <ele>264.02</ele>
        <time>2016-07-30T12:00:00Z</time>
      </trkpt>
      <trkpt lat="45.21369" lon="5.42857">
        <ele>264.02</ele>
        <time>2016-07-30T12:00:01Z</time>
      </trkpt>
      <trkpt lat="45.21323" lon="5.42904">
        <ele>262.58</ele>
        <time>2016-07-30T12:00:12Z</time>
      </trkpt>
      <trkpt lat="45.21308" lon="5.42919">
        <ele>262.58</ele>
        <time>2016-07-30T12:00:17Z</time>
      </trkpt>
      <trkpt lat="45.21308" lon="5.42925">
        <ele>262.58</ele>
        <time>2016-07-30T12:00:18Z</time>
      </trkpt>
      <trkpt lat="45.2131" lon="5.42932">
        <ele>262.58</ele>
        <time>2016-07-30T12:00:20Z</time>
      </trkpt>
      <trkpt lat="45.21322" lon="5.42967">
        <ele>264.5</ele>
        <time>2016-07-30T12:00:26Z</time>
      </trkpt>
      <trkpt lat="45.21359" lon="5.43105">
        <ele>264.98</ele>
        <time>2016-07-30T12:00:44Z</time>
      </trkpt>
      <trkpt lat="45.21403" lon="5.43262">
        <ele>263.54</ele>
        <time>2016-07-30T12:01:04Z</time>
      </trkpt>
      <trkpt lat="45.21445" lon="5.43407">
        <ele>261.62</ele>
        <time>2016-07-30T12:01:20Z</time>
      </trkpt>
      <trkpt lat="45.21485" lon="5.43559">
        <ele>261.14</ele>
        <time>2016-07-30T12:01:37Z</time>
      </trkpt>
      <trkpt lat="45.21525" lon="5.43722">
        <ele>260.17</ele>
        <time>2016-07-30T12:01:58Z</time>
      </trkpt>
      <trkpt lat="45.21544" lon="5.43801">
        <ele>262.1</ele>
        <time>2016-07-30T12:02:09Z</time>
      </trkpt>
      <trkpt lat="45.21546" lon="5.43829">
        <ele>264.98</ele>
        <time>2016-07-30T12:02:15Z</time>
      </trkpt>
      <trkpt lat="45.21546" lon="5.43831">
        <ele>265.46</ele>
        <time>2016-07-30T12:02:16Z</time>
      </trkpt>
      <trkpt lat="45.21551" lon="5.43834">
        <ele>265.94</ele>
        <time>2016-07-30T12:02:27Z</time>
      </trkpt>
      <trkpt lat="45.21555" lon="5.43835">
        <ele>265.94</ele>
        <time>2016-07-30T12:02:35Z</time>
      </trkpt>
      <trkpt lat="45.21565" lon="5.4383">
        <ele>265.94</ele>
        <time>2016-07-30T12:02:41Z</time>
      </trkpt>
      <trkpt lat="45.21568" lon="5.43828">
        <ele>265.94</ele>
        <time>2016-07-30T12:02:43Z</time>
      </trkpt>
      <trkpt lat="45.21618" lon="5.43799">
        <ele>263.06</ele>
        <time>2016-07-30T12:02:54Z</time>
      </trkpt>
      <trkpt lat="45.21695" lon="5.4377">
        <ele>264.02</ele>
        <time>2016-07-30T12:03:08Z</time>
      </trkpt>
      <trkpt lat="45.21696" lon="5.43773">
        <ele>264.02</ele>
        <time>2016-07-30T12:03:09Z</time>
      </trkpt>
      <trkpt lat="45.21697" lon="5.43776">
        <ele>264.02</ele>
        <time>2016-07-30T12:03:10Z</time>
      </trkpt>
      <trkpt lat="45.21697" lon="5.43779">
        <ele>264.02</ele>
        <time>2016-07-30T12:03:11Z</time>
      </trkpt>
      <trkpt lat="45.21696" lon="5.43783">
        <ele>264.02</ele>
        <time>2016-07-30T12:03:12Z</time>
      </trkpt>
      <trkpt lat="45.21695" lon="5.43788">
        <ele>264.5</ele>
        <time>2016-07-30T12:03:13Z</time>
      </trkpt>
      <trkpt lat="45.21694" lon="5.43791">
        <ele>264.5</ele>
        <time>2016-07-30T12:03:14Z</time>
      </trkpt>
      <trkpt lat="45.21687" lon="5.43905">
        <ele>265.46</ele>
        <time>2016-07-30T12:03:35Z</time>
      </trkpt>
      <trkpt lat="45.21698" lon="5.4402">
        <ele>265.94</ele>
        <time>2016-07-30T12:03:53Z</time>
      </trkpt>
      <trkpt lat="45.21714" lon="5.44167">
        <ele>264.98</ele>
        <time>2016-07-30T12:04:13Z</time>
      </trkpt>
      <trkpt lat="45.21722" lon="5.44222">
        <ele>263.06</ele>
        <time>2016-07-30T12:04:20Z</time>
      </trkpt>
      <trkpt lat="45.21736" lon="5.44317">
        <ele>260.17</ele>
        <time>2016-07-30T12:04:31Z</time>
      </trkpt>
      <trkpt lat="45.21738" lon="5.44324">
        <ele>260.17</ele>
        <time>2016-07-30T12:04:32Z</time>
      </trkpt>
      <trkpt lat="45.21745" lon="5.44335">
        <ele>260.17</ele>
        <time>2016-07-30T12:04:34Z</time>
      </trkpt>
      <trkpt lat="45.21753" lon="5.44347">
        <ele>261.62</ele>
        <time>2016-07-30T12:04:36Z</time>
      </trkpt>
      <trkpt lat="45.21756" lon="5.44356">
        <ele>262.1</ele>
        <time>2016-07-30T12:04:37Z</time>
      </trkpt>
      <trkpt lat="45.21757" lon="5.44364">
        <ele>262.1</ele>
        <time>2016-07-30T12:04:38Z</time>
      </trkpt>
      <trkpt lat="45.21756" lon="5.4437">
        <ele>262.1</ele>
        <time>2016-07-30T12:04:39Z</time>
      </trkpt>
      <trkpt lat="45.21754" lon="5.44376">
        <ele>262.1</ele>
        <time>2016-07-30T12:04:40Z</time>
      </trkpt>
      <trkpt lat="45.2174" lon="5.44394">
        <ele>262.1</ele>
        <time>2016-07-30T12:04:43Z</time>
      </trkpt>
      <trkpt lat="45.21736" lon="5.44402">
        <ele>260.17</ele>
        <time>2016-07-30T12:04:45Z</time>
      </trkpt>
      <trkpt lat="45.21734" lon="5.44416">
        <ele>259.69</ele>
        <time>2016-07-30T12:04:46Z</time>
      </trkpt>
      <trkpt lat="45.21734" lon="5.44425">
        <ele>259.21</ele>
        <time>2016-07-30T12:04:47Z</time>
      </trkpt>
      <trkpt lat="45.21734" lon="5.44435">
        <ele>258.25</ele>
        <time>2016-07-30T12:04:48Z</time>
      </trkpt>
      <trkpt lat="45.21735" lon="5.44445">
        <ele>256.81</ele>
        <time>2016-07-30T12:04:49Z</time>
      </trkpt>
      <trkpt lat="45.21738" lon="5.44457">
        <ele>255.85</ele>
        <time>2016-07-30T12:04:50Z</time>
      </trkpt>
      <trkpt lat="45.21742" lon="5.44465">
        <ele>254.89</ele>
        <time>2016-07-30T12:04:51Z</time>
      </trkpt>
      <trkpt lat="45.21746" lon="5.44474">
        <ele>252.96</ele>
        <time>2016-07-30T12:04:52Z</time>
      </trkpt>
      <trkpt lat="45.21752" lon="5.44482">
        <ele>252.48</ele>
        <time>2016-07-30T12:04:53Z</time>
      </trkpt>
      <trkpt lat="45.2176" lon="5.4449">
        <ele>252</ele>
        <time>2016-07-30T12:04:54Z</time>
      </trkpt>
      <trkpt lat="45.21768" lon="5.44497">
        <ele>251.04</ele>
        <time>2016-07-30T12:04:55Z</time>
      </trkpt>
      <trkpt lat="45.21777" lon="5.44504">
        <ele>251.04</ele>
        <time>2016-07-30T12:04:56Z</time>
      </trkpt>
      <trkpt lat="45.21862" lon="5.44566">
        <ele>251.04</ele>
        <time>2016-07-30T12:05:08Z</time>
      </trkpt>
      <trkpt lat="45.21937" lon="5.44637">
        <ele>253.44</ele>
        <time>2016-07-30T12:05:23Z</time>
      </trkpt>
      <trkpt lat="45.22028" lon="5.44727">
        <ele>253.44</ele>
        <time>2016-07-30T12:05:42Z</time>
      </trkpt>
      <trkpt lat="45.22077" lon="5.44776">
        <ele>254.41</ele>
        <time>2016-07-30T12:05:54Z</time>
      </trkpt>
      <trkpt lat="45.22082" lon="5.44783">
        <ele>254.89</ele>
        <time>2016-07-30T12:06:06Z</time>
      </trkpt>
      <trkpt lat="45.22084" lon="5.44786">
        <ele>254.89</ele>
        <time>2016-07-30T12:06:21Z</time>
      </trkpt>
      <trkpt lat="45.22086" lon="5.44787">
        <ele>254.89</ele>
        <time>2016-07-30T12:06:22Z</time>
      </trkpt>
      <trkpt lat="45.22114" lon="5.44771">
        <ele>254.89</ele>
        <time>2016-07-30T12:06:35Z</time>
      </trkpt>
      <trkpt lat="45.22134" lon="5.44701">
        <ele>254.89</ele>
        <time>2016-07-30T12:06:49Z</time>
      </trkpt>
      <trkpt lat="45.22163" lon="5.44599">
        <ele>254.89</ele>
        <time>2016-07-30T12:07:06Z</time>
      </trkpt>
      <trkpt lat="45.22167" lon="5.44591">
        <ele>254.89</ele>
        <time>2016-07-30T12:07:08Z</time>
      </trkpt>
      <trkpt lat="45.2217" lon="5.4459">
        <ele>254.89</ele>
        <time>2016-07-30T12:07:09Z</time>
      </trkpt>
      <trkpt lat="45.22172" lon="5.44589">
        <ele>254.89</ele>
        <time>2016-07-30T12:07:10Z</time>
      </trkpt>
      <trkpt lat="45.22175" lon="5.44587">
        <ele>254.89</ele>
        <time>2016-07-30T12:07:11Z</time>
      </trkpt>
      <trkpt lat="45.22175" lon="5.44585">
        <ele>254.89</ele>
        <time>2016-07-30T12:07:12Z</time>
      </trkpt>
      <trkpt lat="45.22169" lon="5.44581">
        <ele>254.89</ele>
        <time>2016-07-30T12:07:15Z</time>
      </trkpt>
      <trkpt lat="45.22167" lon="5.44584">
        <ele>254.89</ele>
        <time>2016-07-30T12:07:16Z</time>
      </trkpt>
      <trkpt lat="45.22165" lon="5.44587">
        <ele>254.89</ele>
        <time>2016-07-30T12:07:17Z</time>
      </trkpt>
      <trkpt lat="45.22164" lon="5.44589">
        <ele>254.89</ele>
        <time>2016-07-30T12:07:18Z</time>
      </trkpt>
      <trkpt lat="45.22132" lon="5.44672">
        <ele>253.44</ele>
        <time>2016-07-30T12:07:34Z</time>
      </trkpt>
      <trkpt lat="45.22131" lon="5.4468">
        <ele>253.44</ele>
        <time>2016-07-30T12:07:35Z</time>
      </trkpt>
      <trkpt lat="45.22103" lon="5.44777">
        <ele>253.44</ele>
        <time>2016-07-30T12:07:52Z</time>
      </trkpt>
      <trkpt lat="45.22042" lon="5.44787">
        <ele>253.44</ele>
        <time>2016-07-30T12:08:06Z</time>
      </trkpt>
      <trkpt lat="45.22033" lon="5.44791">
        <ele>253.44</ele>
        <time>2016-07-30T12:08:08Z</time>
      </trkpt>
      <trkpt lat="45.22028" lon="5.44794">
        <ele>253.44</ele>
        <time>2016-07-30T12:08:09Z</time>
      </trkpt>
      <trkpt lat="45.22024" lon="5.44797">
        <ele>252.96</ele>
        <time>2016-07-30T12:08:10Z</time>
      </trkpt>
      <trkpt lat="45.22018" lon="5.44802">
        <ele>252.96</ele>
        <time>2016-07-30T12:08:11Z</time>
      </trkpt>
      <trkpt lat="45.22015" lon="5.44805">
        <ele>252.96</ele>
        <time>2016-07-30T12:08:12Z</time>
      </trkpt>
      <trkpt lat="45.22011" lon="5.4481">
        <ele>252.96</ele>
        <time>2016-07-30T12:08:13Z</time>
      </trkpt>
      <trkpt lat="45.21999" lon="5.44827">
        <ele>251.52</ele>
        <time>2016-07-30T12:08:16Z</time>
      </trkpt>
      <trkpt lat="45.21944" lon="5.44959">
        <ele>250.56</ele>
        <time>2016-07-30T12:08:33Z</time>
      </trkpt>
      <trkpt lat="45.21895" lon="5.45063">
        <ele>252.96</ele>
        <time>2016-07-30T12:08:50Z</time>
      </trkpt>
      <trkpt lat="45.21831" lon="5.45154">
        <ele>253.44</ele>
        <time>2016-07-30T12:09:08Z</time>
      </trkpt>
      <trkpt lat="45.21822" lon="5.45167">
        <ele>253.93</ele>
        <time>2016-07-30T12:09:19Z</time>
      </trkpt>
      <trkpt lat="45.21824" lon="5.45168">
        <ele>253.93</ele>
        <time>2016-07-30T12:09:45Z</time>
      </trkpt>
      <trkpt lat="45.21823" lon="5.4517">
        <ele>253.93</ele>
        <time>2016-07-30T12:09:52Z</time>
      </trkpt>
      <trkpt lat="45.21822" lon="5.45171">
        <ele>253.93</ele>
        <time>2016-07-30T12:09:53Z</time>
      </trkpt>
      <trkpt lat="45.21821" lon="5.45173">
        <ele>253.93</ele>
        <time>2016-07-30T12:09:54Z</time>
      </trkpt>
      <trkpt lat="45.21819" lon="5.4518">
        <ele>253.93</ele>
        <time>2016-07-30T12:09:56Z</time>
      </trkpt>
      <trkpt lat="45.21816" lon="5.45182">
        <ele>253.93</ele>
        <time>2016-07-30T12:09:57Z</time>
      </trkpt>
      <trkpt lat="45.21778" lon="5.45252">
        <ele>251.52</ele>
        <time>2016-07-30T12:10:12Z</time>
      </trkpt>
      <trkpt lat="45.21748" lon="5.45319">
        <ele>248.16</ele>
        <time>2016-07-30T12:10:21Z</time>
      </trkpt>
      <trkpt lat="45.2174" lon="5.45337">
        <ele>247.2</ele>
        <time>2016-07-30T12:10:23Z</time>
      </trkpt>
      <trkpt lat="45.21719" lon="5.45397">
        <ele>244.31</ele>
        <time>2016-07-30T12:10:29Z</time>
      </trkpt>
      <trkpt lat="45.21688" lon="5.45506">
        <ele>243.83</ele>
        <time>2016-07-30T12:10:40Z</time>
      </trkpt>
      <trkpt lat="45.21684" lon="5.45514">
        <ele>243.83</ele>
        <time>2016-07-30T12:10:41Z</time>
      </trkpt>
      <trkpt lat="45.2168" lon="5.45521">
        <ele>243.83</ele>
        <time>2016-07-30T12:10:42Z</time>
      </trkpt>
      <trkpt lat="45.21671" lon="5.45534">
        <ele>245.27</ele>
        <time>2016-07-30T12:10:44Z</time>
      </trkpt>
      <trkpt lat="45.21613" lon="5.45567">
        <ele>247.2</ele>
        <time>2016-07-30T12:10:55Z</time>
      </trkpt>
      <trkpt lat="45.21552" lon="5.45592">
        <ele>245.75</ele>
        <time>2016-07-30T12:11:06Z</time>
      </trkpt>
      <trkpt lat="45.21484" lon="5.45665">
        <ele>243.35</ele>
        <time>2016-07-30T12:11:19Z</time>
      </trkpt>
      <trkpt lat="45.21447" lon="5.45708">
        <ele>240.47</ele>
        <time>2016-07-30T12:11:25Z</time>
      </trkpt>
      <trkpt lat="45.21439" lon="5.45713">
        <ele>239.99</ele>
        <time>2016-07-30T12:11:26Z</time>
      </trkpt>
      <trkpt lat="45.2143" lon="5.45716">
        <ele>239.02</ele>
        <time>2016-07-30T12:11:27Z</time>
      </trkpt>
      <trkpt lat="45.21421" lon="5.45718">
        <ele>239.02</ele>
        <time>2016-07-30T12:11:28Z</time>
      </trkpt>
      <trkpt lat="45.21413" lon="5.45719">
        <ele>239.02</ele>
        <time>2016-07-30T12:11:29Z</time>
      </trkpt>
      <trkpt lat="45.21404" lon="5.45718">
        <ele>239.02</ele>
        <time>2016-07-30T12:11:30Z</time>
      </trkpt>
      <trkpt lat="45.21395" lon="5.45716">
        <ele>239.02</ele>
        <time>2016-07-30T12:11:31Z</time>
      </trkpt>
      <trkpt lat="45.21285" lon="5.45691">
        <ele>240.95</ele>
        <time>2016-07-30T12:11:45Z</time>
      </trkpt>
      <trkpt lat="45.21174" lon="5.4569">
        <ele>239.02</ele>
        <time>2016-07-30T12:12:01Z</time>
      </trkpt>
      <trkpt lat="45.21139" lon="5.45704">
        <ele>238.06</ele>
        <time>2016-07-30T12:12:06Z</time>
      </trkpt>
      <trkpt lat="45.21052" lon="5.45781">
        <ele>234.7</ele>
        <time>2016-07-30T12:12:19Z</time>
      </trkpt>
      <trkpt lat="45.20985" lon="5.45852">
        <ele>231.33</ele>
        <time>2016-07-30T12:12:29Z</time>
      </trkpt>
      <trkpt lat="45.20979" lon="5.45861">
        <ele>231.33</ele>
        <time>2016-07-30T12:12:30Z</time>
      </trkpt>
      <trkpt lat="45.20946" lon="5.4592">
        <ele>227.97</ele>
        <time>2016-07-30T12:12:36Z</time>
      </trkpt>
      <trkpt lat="45.20921" lon="5.45963">
        <ele>224.61</ele>
        <time>2016-07-30T12:12:40Z</time>
      </trkpt>
      <trkpt lat="45.20885" lon="5.4603">
        <ele>220.76</ele>
        <time>2016-07-30T12:12:46Z</time>
      </trkpt>
      <trkpt lat="45.20865" lon="5.46064">
        <ele>216.91</ele>
        <time>2016-07-30T12:12:49Z</time>
      </trkpt>
      <trkpt lat="45.20845" lon="5.46099">
        <ele>214.99</ele>
        <time>2016-07-30T12:12:52Z</time>
      </trkpt>
      <trkpt lat="45.20824" lon="5.46135">
        <ele>212.59</ele>
        <time>2016-07-30T12:12:55Z</time>
      </trkpt>
      <trkpt lat="45.20795" lon="5.46186">
        <ele>209.22</ele>
        <time>2016-07-30T12:12:59Z</time>
      </trkpt>
      <trkpt lat="45.20774" lon="5.46227">
        <ele>205.38</ele>
        <time>2016-07-30T12:13:02Z</time>
      </trkpt>
      <trkpt lat="45.20769" lon="5.46242">
        <ele>204.42</ele>
        <time>2016-07-30T12:13:03Z</time>
      </trkpt>
      <trkpt lat="45.20765" lon="5.46258">
        <ele>203.46</ele>
        <time>2016-07-30T12:13:04Z</time>
      </trkpt>
      <trkpt lat="45.20762" lon="5.46274">
        <ele>202.49</ele>
        <time>2016-07-30T12:13:05Z</time>
      </trkpt>
      <trkpt lat="45.2076" lon="5.46291">
        <ele>201.53</ele>
        <time>2016-07-30T12:13:06Z</time>
      </trkpt>
      <trkpt lat="45.20761" lon="5.46308">
        <ele>201.53</ele>
        <time>2016-07-30T12:13:07Z</time>
      </trkpt>
      <trkpt lat="45.20762" lon="5.46325">
        <ele>201.53</ele>
        <time>2016-07-30T12:13:08Z</time>
      </trkpt>
      <trkpt lat="45.20766" lon="5.4634">
        <ele>201.53</ele>
        <time>2016-07-30T12:13:09Z</time>
      </trkpt>
      <trkpt lat="45.20773" lon="5.46355">
        <ele>200.09</ele>
        <time>2016-07-30T12:13:10Z</time>
      </trkpt>
      <trkpt lat="45.2078" lon="5.46368">
        <ele>200.09</ele>
        <time>2016-07-30T12:13:11Z</time>
      </trkpt>
      <trkpt lat="45.20788" lon="5.4638">
        <ele>200.09</ele>
        <time>2016-07-30T12:13:12Z</time>
      </trkpt>
      <trkpt lat="45.20797" lon="5.4639">
        <ele>199.13</ele>
        <time>2016-07-30T12:13:13Z</time>
      </trkpt>
      <trkpt lat="45.20807" lon="5.46399">
        <ele>198.65</ele>
        <time>2016-07-30T12:13:14Z</time>
      </trkpt>
      <trkpt lat="45.20817" lon="5.46406">
        <ele>198.17</ele>
        <time>2016-07-30T12:13:15Z</time>
      </trkpt>
      <trkpt lat="45.20828" lon="5.46412">
        <ele>197.69</ele>
        <time>2016-07-30T12:13:16Z</time>
      </trkpt>
      <trkpt lat="45.20839" lon="5.46418">
        <ele>197.69</ele>
        <time>2016-07-30T12:13:17Z</time>
      </trkpt>
      <trkpt lat="45.2085" lon="5.46425">
        <ele>196.25</ele>
        <time>2016-07-30T12:13:18Z</time>
      </trkpt>
      <trkpt lat="45.2086" lon="5.46433">
        <ele>195.28</ele>
        <time>2016-07-30T12:13:19Z</time>
      </trkpt>
      <trkpt lat="45.20868" lon="5.46443">
        <ele>194.32</ele>
        <time>2016-07-30T12:13:20Z</time>
      </trkpt>
      <trkpt lat="45.20876" lon="5.46455">
        <ele>194.32</ele>
        <time>2016-07-30T12:13:21Z</time>
      </trkpt>
      <trkpt lat="45.20883" lon="5.46467">
        <ele>193.36</ele>
        <time>2016-07-30T12:13:22Z</time>
      </trkpt>
      <trkpt lat="45.20888" lon="5.4648">
        <ele>192.4</ele>
        <time>2016-07-30T12:13:23Z</time>
      </trkpt>
      <trkpt lat="45.20892" lon="5.46494">
        <ele>192.4</ele>
        <time>2016-07-30T12:13:24Z</time>
      </trkpt>
      <trkpt lat="45.20895" lon="5.46507">
        <ele>191.92</ele>
        <time>2016-07-30T12:13:25Z</time>
      </trkpt>
      <trkpt lat="45.20896" lon="5.46519">
        <ele>191.92</ele>
        <time>2016-07-30T12:13:26Z</time>
      </trkpt>
      <trkpt lat="45.20896" lon="5.46531">
        <ele>191.92</ele>
        <time>2016-07-30T12:13:27Z</time>
      </trkpt>
      <trkpt lat="45.20894" lon="5.46542">
        <ele>190.96</ele>
        <time>2016-07-30T12:13:28Z</time>
      </trkpt>
      <trkpt lat="45.20892" lon="5.46552">
        <ele>190.96</ele>
        <time>2016-07-30T12:13:29Z</time>
      </trkpt>
      <trkpt lat="45.2089" lon="5.4656">
        <ele>190.96</ele>
        <time>2016-07-30T12:13:30Z</time>
      </trkpt>
      <trkpt lat="45.20888" lon="5.46567">
        <ele>190.96</ele>
        <time>2016-07-30T12:13:31Z</time>
      </trkpt>
      <trkpt lat="45.20886" lon="5.46573">
        <ele>190.96</ele>
        <time>2016-07-30T12:13:32Z</time>
      </trkpt>
      <trkpt lat="45.20879" lon="5.46604">
        <ele>190.96</ele>
        <time>2016-07-30T12:13:38Z</time>
      </trkpt>
      <trkpt lat="45.2089" lon="5.4665">
        <ele>190.48</ele>
        <time>2016-07-30T12:13:50Z</time>
      </trkpt>
      <trkpt lat="45.20915" lon="5.46704">
        <ele>188.56</ele>
        <time>2016-07-30T12:14:02Z</time>
      </trkpt>
      <trkpt lat="45.20979" lon="5.46819">
        <ele>188.56</ele>
        <time>2016-07-30T12:14:20Z</time>
      </trkpt>
      <trkpt lat="45.21052" lon="5.46935">
        <ele>188.08</ele>
        <time>2016-07-30T12:14:38Z</time>
      </trkpt>
      <trkpt lat="45.21132" lon="5.47053">
        <ele>187.59</ele>
        <time>2016-07-30T12:14:55Z</time>
      </trkpt>
      <trkpt lat="45.21222" lon="5.4719">
        <ele>187.11</ele>
        <time>2016-07-30T12:15:15Z</time>
      </trkpt>
      <trkpt lat="45.21319" lon="5.47334">
        <ele>187.11</ele>
        <time>2016-07-30T12:15:35Z</time>
      </trkpt>
      <trkpt lat="45.21423" lon="5.47448">
        <ele>186.63</ele>
        <time>2016-07-30T12:15:53Z</time>
      </trkpt>
      <trkpt lat="45.21529" lon="5.47546">
        <ele>186.63</ele>
        <time>2016-07-30T12:16:11Z</time>
      </trkpt>
      <trkpt lat="45.21634" lon="5.4763">
        <ele>185.67</ele>
        <time>2016-07-30T12:16:28Z</time>
      </trkpt>
      <trkpt lat="45.21758" lon="5.47738">
        <ele>185.67</ele>
        <time>2016-07-30T12:16:49Z</time>
      </trkpt>
      <trkpt lat="45.21854" lon="5.47842">
        <ele>185.67</ele>
        <time>2016-07-30T12:17:07Z</time>
      </trkpt>
      <trkpt lat="45.21887" lon="5.47883">
        <ele>187.11</ele>
        <time>2016-07-30T12:17:14Z</time>
      </trkpt>
      <trkpt lat="45.21902" lon="5.47901">
        <ele>185.67</ele>
        <time>2016-07-30T12:17:17Z</time>
      </trkpt>
      <trkpt lat="45.21961" lon="5.48003">
        <ele>185.67</ele>
        <time>2016-07-30T12:17:32Z</time>
      </trkpt>
      <trkpt lat="45.22027" lon="5.48145">
        <ele>185.67</ele>
        <time>2016-07-30T12:17:51Z</time>
      </trkpt>
      <trkpt lat="45.22108" lon="5.48288">
        <ele>185.67</ele>
        <time>2016-07-30T12:18:12Z</time>
      </trkpt>
      <trkpt lat="45.22167" lon="5.48383">
        <ele>187.11</ele>
        <time>2016-07-30T12:18:29Z</time>
      </trkpt>
      <trkpt lat="45.22173" lon="5.48387">
        <ele>187.11</ele>
        <time>2016-07-30T12:18:37Z</time>
      </trkpt>
      <trkpt lat="45.22175" lon="5.48385">
        <ele>187.11</ele>
        <time>2016-07-30T12:18:53Z</time>
      </trkpt>
      <trkpt lat="45.22172" lon="5.48384">
        <ele>187.11</ele>
        <time>2016-07-30T12:19:03Z</time>
      </trkpt>
      <trkpt lat="45.22171" lon="5.48382">
        <ele>187.11</ele>
        <time>2016-07-30T12:19:04Z</time>
      </trkpt>
      <trkpt lat="45.22139" lon="5.48333">
        <ele>187.11</ele>
        <time>2016-07-30T12:19:20Z</time>
      </trkpt>
      <trkpt lat="45.22089" lon="5.48247">
        <ele>187.11</ele>
        <time>2016-07-30T12:19:35Z</time>
      </trkpt>
      <trkpt lat="45.22032" lon="5.48141">
        <ele>187.11</ele>
        <time>2016-07-30T12:19:52Z</time>
      </trkpt>
      <trkpt lat="45.21969" lon="5.48015">
        <ele>187.11</ele>
        <time>2016-07-30T12:20:11Z</time>
      </trkpt>
      <trkpt lat="45.21908" lon="5.47909">
        <ele>187.11</ele>
        <time>2016-07-30T12:20:27Z</time>
      </trkpt>
      <trkpt lat="45.21827" lon="5.47811">
        <ele>187.11</ele>
        <time>2016-07-30T12:20:45Z</time>
      </trkpt>
      <trkpt lat="45.21739" lon="5.47717">
        <ele>185.67</ele>
        <time>2016-07-30T12:21:04Z</time>
      </trkpt>
      <trkpt lat="45.21667" lon="5.47656">
        <ele>185.67</ele>
        <time>2016-07-30T12:21:18Z</time>
      </trkpt>
      <trkpt lat="45.21569" lon="5.47576">
        <ele>185.67</ele>
        <time>2016-07-30T12:21:37Z</time>
      </trkpt>
      <trkpt lat="45.21558" lon="5.47568">
        <ele>184.71</ele>
        <time>2016-07-30T12:21:39Z</time>
      </trkpt>
      <trkpt lat="45.21553" lon="5.47563">
        <ele>184.71</ele>
        <time>2016-07-30T12:21:40Z</time>
      </trkpt>
      <trkpt lat="45.21476" lon="5.47492">
        <ele>184.71</ele>
        <time>2016-07-30T12:21:56Z</time>
      </trkpt>
      <trkpt lat="45.21371" lon="5.47377">
        <ele>183.75</ele>
        <time>2016-07-30T12:22:17Z</time>
      </trkpt>
      <trkpt lat="45.21288" lon="5.47262">
        <ele>183.27</ele>
        <time>2016-07-30T12:22:34Z</time>
      </trkpt>
      <trkpt lat="45.21208" lon="5.47136">
        <ele>183.27</ele>
        <time>2016-07-30T12:22:53Z</time>
      </trkpt>
      <trkpt lat="45.21115" lon="5.4699">
        <ele>183.27</ele>
        <time>2016-07-30T12:23:14Z</time>
      </trkpt>
      <trkpt lat="45.21016" lon="5.46838">
        <ele>182.79</ele>
        <time>2016-07-30T12:23:36Z</time>
      </trkpt>
      <trkpt lat="45.20922" lon="5.46695">
        <ele>182.31</ele>
        <time>2016-07-30T12:23:55Z</time>
      </trkpt>
      <trkpt lat="45.20907" lon="5.4667">
        <ele>183.75</ele>
        <time>2016-07-30T12:23:59Z</time>
      </trkpt>
      <trkpt lat="45.20905" lon="5.46665">
        <ele>183.75</ele>
        <time>2016-07-30T12:24:00Z</time>
      </trkpt>
      <trkpt lat="45.20893" lon="5.46632">
        <ele>184.23</ele>
        <time>2016-07-30T12:24:10Z</time>
      </trkpt>
      <trkpt lat="45.20885" lon="5.46616">
        <ele>185.19</ele>
        <time>2016-07-30T12:24:16Z</time>
      </trkpt>
      <trkpt lat="45.20885" lon="5.46614">
        <ele>185.19</ele>
        <time>2016-07-30T12:24:17Z</time>
      </trkpt>
      <trkpt lat="45.20885" lon="5.46606">
        <ele>185.19</ele>
        <time>2016-07-30T12:24:20Z</time>
      </trkpt>
      <trkpt lat="45.20883" lon="5.46604">
        <ele>185.19</ele>
        <time>2016-07-30T12:24:21Z</time>
      </trkpt>
      <trkpt lat="45.20881" lon="5.46603">
        <ele>185.19</ele>
        <time>2016-07-30T12:24:22Z</time>
      </trkpt>
      <trkpt lat="45.20878" lon="5.46602">
        <ele>185.19</ele>
        <time>2016-07-30T12:24:23Z</time>
      </trkpt>
      <trkpt lat="45.20875" lon="5.46602">
        <ele>185.19</ele>
        <time>2016-07-30T12:24:24Z</time>
      </trkpt>
      <trkpt lat="45.20872" lon="5.46604">
        <ele>185.19</ele>
        <time>2016-07-30T12:24:25Z</time>
      </trkpt>
      <trkpt lat="45.20869" lon="5.46606">
        <ele>185.19</ele>
        <time>2016-07-30T12:24:26Z</time>
      </trkpt>
      <trkpt lat="45.20866" lon="5.46609">
        <ele>185.19</ele>
        <time>2016-07-30T12:24:27Z</time>
      </trkpt>
      <trkpt lat="45.20803" lon="5.467">
        <ele>184.71</ele>
        <time>2016-07-30T12:24:48Z</time>
      </trkpt>
      <trkpt lat="45.20758" lon="5.46757">
        <ele>184.71</ele>
        <time>2016-07-30T12:25:03Z</time>
      </trkpt>
      <trkpt lat="45.20756" lon="5.46755">
        <ele>184.71</ele>
        <time>2016-07-30T12:25:04Z</time>
      </trkpt>
      <trkpt lat="45.20755" lon="5.46752">
        <ele>184.71</ele>
        <time>2016-07-30T12:25:05Z</time>
      </trkpt>
      <trkpt lat="45.20752" lon="5.46743">
        <ele>183.27</ele>
        <time>2016-07-30T12:25:07Z</time>
      </trkpt>
      <trkpt lat="45.20736" lon="5.4671">
        <ele>181.83</ele>
        <time>2016-07-30T12:25:17Z</time>
      </trkpt>
      <trkpt lat="45.20733" lon="5.46707">
        <ele>181.83</ele>
        <time>2016-07-30T12:25:30Z</time>
      </trkpt>
      <trkpt lat="45.20733" lon="5.46708">
        <ele>181.83</ele>
        <time>2016-07-30T12:25:59Z</time>
      </trkpt>
      <trkpt lat="45.20734" lon="5.46709">
        <ele>181.83</ele>
        <time>2016-07-30T12:26:32Z</time>
      </trkpt>
      <trkpt lat="45.20735" lon="5.4671">
        <ele>181.83</ele>
        <time>2016-07-30T12:26:54Z</time>
      </trkpt>
      <trkpt lat="45.20729" lon="5.46705">
        <ele>182.31</ele>
        <time>2016-07-30T12:27:10Z</time>
      </trkpt>
      <trkpt lat="45.20698" lon="5.46652">
        <ele>182.31</ele>
        <time>2016-07-30T12:27:25Z</time>
      </trkpt>
      <trkpt lat="45.20661" lon="5.46595">
        <ele>183.27</ele>
        <time>2016-07-30T12:27:40Z</time>
      </trkpt>
      <trkpt lat="45.20659" lon="5.46595">
        <ele>183.27</ele>
        <time>2016-07-30T12:27:41Z</time>
      </trkpt>
      <trkpt lat="45.20658" lon="5.46595">
        <ele>183.27</ele>
        <time>2016-07-30T12:27:42Z</time>
      </trkpt>
      <trkpt lat="45.20656" lon="5.46591">
        <ele>183.75</ele>
        <time>2016-07-30T12:27:45Z</time>
      </trkpt>
      <trkpt lat="45.20637" lon="5.46548">
        <ele>183.75</ele>
        <time>2016-07-30T12:27:56Z</time>
      </trkpt>
      <trkpt lat="45.20625" lon="5.46527">
        <ele>182.79</ele>
        <time>2016-07-30T12:28:00Z</time>
      </trkpt>
      <trkpt lat="45.20573" lon="5.46439">
        <ele>181.83</ele>
        <time>2016-07-30T12:28:15Z</time>
      </trkpt>
      <trkpt lat="45.20557" lon="5.46404">
        <ele>183.27</ele>
        <time>2016-07-30T12:28:22Z</time>
      </trkpt>
      <trkpt lat="45.20551" lon="5.46381">
        <ele>183.75</ele>
        <time>2016-07-30T12:28:28Z</time>
      </trkpt>
      <trkpt lat="45.20548" lon="5.46383">
        <ele>184.23</ele>
        <time>2016-07-30T12:28:31Z</time>
      </trkpt>
      <trkpt lat="45.20548" lon="5.46385">
        <ele>184.23</ele>
        <time>2016-07-30T12:28:32Z</time>
      </trkpt>
      <trkpt lat="45.20548" lon="5.46389">
        <ele>184.23</ele>
        <time>2016-07-30T12:28:33Z</time>
      </trkpt>
      <trkpt lat="45.20549" lon="5.46393">
        <ele>184.23</ele>
        <time>2016-07-30T12:28:34Z</time>
      </trkpt>
      <trkpt lat="45.2055" lon="5.46398">
        <ele>184.23</ele>
        <time>2016-07-30T12:28:35Z</time>
      </trkpt>
      <trkpt lat="45.20551" lon="5.46403">
        <ele>184.23</ele>
        <time>2016-07-30T12:28:36Z</time>
      </trkpt>
      <trkpt lat="45.20552" lon="5.46408">
        <ele>182.79</ele>
        <time>2016-07-30T12:28:37Z</time>
      </trkpt>
      <trkpt lat="45.20554" lon="5.46412">
        <ele>182.79</ele>
        <time>2016-07-30T12:28:38Z</time>
      </trkpt>
      <trkpt lat="45.20555" lon="5.46416">
        <ele>182.79</ele>
        <time>2016-07-30T12:28:39Z</time>
      </trkpt>
      <trkpt lat="45.20555" lon="5.4642">
        <ele>182.79</ele>
        <time>2016-07-30T12:28:40Z</time>
      </trkpt>
      <trkpt lat="45.20554" lon="5.46423">
        <ele>182.79</ele>
        <time>2016-07-30T12:28:41Z</time>
      </trkpt>
      <trkpt lat="45.20535" lon="5.46447">
        <ele>184.23</ele>
        <time>2016-07-30T12:28:51Z</time>
      </trkpt>
      <trkpt lat="45.20482" lon="5.46489">
        <ele>187.11</ele>
        <time>2016-07-30T12:29:10Z</time>
      </trkpt>
      <trkpt lat="45.20426" lon="5.46499">
        <ele>189.52</ele>
        <time>2016-07-30T12:29:29Z</time>
      </trkpt>
      <trkpt lat="45.20397" lon="5.46473">
        <ele>192.4</ele>
        <time>2016-07-30T12:29:44Z</time>
      </trkpt>
      <trkpt lat="45.20396" lon="5.46471">
        <ele>192.4</ele>
        <time>2016-07-30T12:29:57Z</time>
      </trkpt>
      <trkpt lat="45.20397" lon="5.4647">
        <ele>192.4</ele>
        <time>2016-07-30T12:30:36Z</time>
      </trkpt>
      <trkpt lat="45.20398" lon="5.46476">
        <ele>192.4</ele>
        <time>2016-07-30T12:31:06Z</time>
      </trkpt>
      <trkpt lat="45.20397" lon="5.46477">
        <ele>192.4</ele>
        <time>2016-07-30T12:31:17Z</time>
      </trkpt>
      <trkpt lat="45.20398" lon="5.46479">
        <ele>192.4</ele>
        <time>2016-07-30T12:31:35Z</time>
      </trkpt>
      <trkpt lat="45.20397" lon="5.46479">
        <ele>192.88</ele>
        <time>2016-07-30T12:31:56Z</time>
      </trkpt>
      <trkpt lat="45.20395" lon="5.46478">
        <ele>192.88</ele>
        <time>2016-07-30T12:32:17Z</time>
      </trkpt>
      <trkpt lat="45.20392" lon="5.46479">
        <ele>192.88</ele>
        <time>2016-07-30T12:32:35Z</time>
      </trkpt>
      <trkpt lat="45.20391" lon="5.46478">
        <ele>192.88</ele>
        <time>2016-07-30T12:32:36Z</time>
      </trkpt>
      <trkpt lat="45.20389" lon="5.46478">
        <ele>191.44</ele>
        <time>2016-07-30T12:32:37Z</time>
      </trkpt>
      <trkpt lat="45.20387" lon="5.46478">
        <ele>191.44</ele>
        <time>2016-07-30T12:32:38Z</time>
      </trkpt>
      <trkpt lat="45.20384" lon="5.46478">
        <ele>191.44</ele>
        <time>2016-07-30T12:32:39Z</time>
      </trkpt>
      <trkpt lat="45.20337" lon="5.46467">
        <ele>193.36</ele>
        <time>2016-07-30T12:32:55Z</time>
      </trkpt>
      <trkpt lat="45.20295" lon="5.46454">
        <ele>196.25</ele>
        <time>2016-07-30T12:33:11Z</time>
      </trkpt>
      <trkpt lat="45.20249" lon="5.46427">
        <ele>198.65</ele>
        <time>2016-07-30T12:33:29Z</time>
      </trkpt>
      <trkpt lat="45.20217" lon="5.46403">
        <ele>201.05</ele>
        <time>2016-07-30T12:33:44Z</time>
      </trkpt>
      <trkpt lat="45.20193" lon="5.4636">
        <ele>204.42</ele>
        <time>2016-07-30T12:33:59Z</time>
      </trkpt>
      <trkpt lat="45.20166" lon="5.46316">
        <ele>206.82</ele>
        <time>2016-07-30T12:34:16Z</time>
      </trkpt>
      <trkpt lat="45.20142" lon="5.46277">
        <ele>209.7</ele>
        <time>2016-07-30T12:34:32Z</time>
      </trkpt>
      <trkpt lat="45.20118" lon="5.46232">
        <ele>212.59</ele>
        <time>2016-07-30T12:34:47Z</time>
      </trkpt>
      <trkpt lat="45.20091" lon="5.46183">
        <ele>215.95</ele>
        <time>2016-07-30T12:35:03Z</time>
      </trkpt>
      <trkpt lat="45.20056" lon="5.46129">
        <ele>218.84</ele>
        <time>2016-07-30T12:35:23Z</time>
      </trkpt>
      <trkpt lat="45.20049" lon="5.46085">
        <ele>219.8</ele>
        <time>2016-07-30T12:35:35Z</time>
      </trkpt>
      <trkpt lat="45.20053" lon="5.45981">
        <ele>220.28</ele>
        <time>2016-07-30T12:35:54Z</time>
      </trkpt>
      <trkpt lat="45.20051" lon="5.45959">
        <ele>220.28</ele>
        <time>2016-07-30T12:35:58Z</time>
      </trkpt>
      <trkpt lat="45.20018" lon="5.45862">
        <ele>222.2</ele>
        <time>2016-07-30T12:36:16Z</time>
      </trkpt>
      <trkpt lat="45.19974" lon="5.45769">
        <ele>224.61</ele>
        <time>2016-07-30T12:36:34Z</time>
      </trkpt>
      <trkpt lat="45.19936" lon="5.45667">
        <ele>222.68</ele>
        <time>2016-07-30T12:36:49Z</time>
      </trkpt>
      <trkpt lat="45.19887" lon="5.45541">
        <ele>219.32</ele>
        <time>2016-07-30T12:37:02Z</time>
      </trkpt>
      <trkpt lat="45.19868" lon="5.45474">
        <ele>216.91</ele>
        <time>2016-07-30T12:37:08Z</time>
      </trkpt>
      <trkpt lat="45.19823" lon="5.45316">
        <ele>215.95</ele>
        <time>2016-07-30T12:37:23Z</time>
      </trkpt>
      <trkpt lat="45.19786" lon="5.45148">
        <ele>214.51</ele>
        <time>2016-07-30T12:37:39Z</time>
      </trkpt>
      <trkpt lat="45.19778" lon="5.45056">
        <ele>214.03</ele>
        <time>2016-07-30T12:37:48Z</time>
      </trkpt>
      <trkpt lat="45.19779" lon="5.45045">
        <ele>213.55</ele>
        <time>2016-07-30T12:37:49Z</time>
      </trkpt>
      <trkpt lat="45.19783" lon="5.44981">
        <ele>213.55</ele>
        <time>2016-07-30T12:37:55Z</time>
      </trkpt>
      <trkpt lat="45.19782" lon="5.44972">
        <ele>213.55</ele>
        <time>2016-07-30T12:37:56Z</time>
      </trkpt>
      <trkpt lat="45.1978" lon="5.44962">
        <ele>213.55</ele>
        <time>2016-07-30T12:37:57Z</time>
      </trkpt>
      <trkpt lat="45.19777" lon="5.44953">
        <ele>213.55</ele>
        <time>2016-07-30T12:37:58Z</time>
      </trkpt>
      <trkpt lat="45.19773" lon="5.44944">
        <ele>213.55</ele>
        <time>2016-07-30T12:37:59Z</time>
      </trkpt>
      <trkpt lat="45.19751" lon="5.44886">
        <ele>214.99</ele>
        <time>2016-07-30T12:38:06Z</time>
      </trkpt>
      <trkpt lat="45.19732" lon="5.44838">
        <ele>215.47</ele>
        <time>2016-07-30T12:38:17Z</time>
      </trkpt>
      <trkpt lat="45.19733" lon="5.44842">
        <ele>215.95</ele>
        <time>2016-07-30T12:38:32Z</time>
      </trkpt>
      <trkpt lat="45.19735" lon="5.44841">
        <ele>215.95</ele>
        <time>2016-07-30T12:38:44Z</time>
      </trkpt>
      <trkpt lat="45.19732" lon="5.4484">
        <ele>215.95</ele>
        <time>2016-07-30T12:39:07Z</time>
      </trkpt>
      <trkpt lat="45.19734" lon="5.44841">
        <ele>216.43</ele>
        <time>2016-07-30T12:39:28Z</time>
      </trkpt>
      <trkpt lat="45.19734" lon="5.44839">
        <ele>216.43</ele>
        <time>2016-07-30T12:39:59Z</time>
      </trkpt>
      <trkpt lat="45.19734" lon="5.44839">
        <ele>216.91</ele>
        <time>2016-07-30T12:40:25Z</time>
      </trkpt>
      <trkpt lat="45.19733" lon="5.44837">
        <ele>216.91</ele>
        <time>2016-07-30T12:41:00Z</time>
      </trkpt>
      <trkpt lat="45.19724" lon="5.44828">
        <ele>217.88</ele>
        <time>2016-07-30T12:41:13Z</time>
      </trkpt>
      <trkpt lat="45.19701" lon="5.44792">
        <ele>219.32</ele>
        <time>2016-07-30T12:41:28Z</time>
      </trkpt>
      <trkpt lat="45.19671" lon="5.44755">
        <ele>222.2</ele>
        <time>2016-07-30T12:41:44Z</time>
      </trkpt>
      <trkpt lat="45.19639" lon="5.44708">
        <ele>225.09</ele>
        <time>2016-07-30T12:42:00Z</time>
      </trkpt>
      <trkpt lat="45.19604" lon="5.44649">
        <ele>226.53</ele>
        <time>2016-07-30T12:42:17Z</time>
      </trkpt>
      <trkpt lat="45.19553" lon="5.44581">
        <ele>229.41</ele>
        <time>2016-07-30T12:42:36Z</time>
      </trkpt>
      <trkpt lat="45.19524" lon="5.44515">
        <ele>232.3</ele>
        <time>2016-07-30T12:42:52Z</time>
      </trkpt>
      <trkpt lat="45.19525" lon="5.44509">
        <ele>231.81</ele>
        <time>2016-07-30T12:42:54Z</time>
      </trkpt>
      <trkpt lat="45.19527" lon="5.44506">
        <ele>231.81</ele>
        <time>2016-07-30T12:42:55Z</time>
      </trkpt>
      <trkpt lat="45.19539" lon="5.44485">
        <ele>230.85</ele>
        <time>2016-07-30T12:43:00Z</time>
      </trkpt>
      <trkpt lat="45.19568" lon="5.4444">
        <ele>227.49</ele>
        <time>2016-07-30T12:43:07Z</time>
      </trkpt>
      <trkpt lat="45.19573" lon="5.44431">
        <ele>227.01</ele>
        <time>2016-07-30T12:43:08Z</time>
      </trkpt>
      <trkpt lat="45.19594" lon="5.44397">
        <ele>223.64</ele>
        <time>2016-07-30T12:43:12Z</time>
      </trkpt>
      <trkpt lat="45.19621" lon="5.44366">
        <ele>220.76</ele>
        <time>2016-07-30T12:43:16Z</time>
      </trkpt>
      <trkpt lat="45.19656" lon="5.44343">
        <ele>216.91</ele>
        <time>2016-07-30T12:43:20Z</time>
      </trkpt>
      <trkpt lat="45.19665" lon="5.44338">
        <ele>216.91</ele>
        <time>2016-07-30T12:43:21Z</time>
      </trkpt>
      <trkpt lat="45.19724" lon="5.44313">
        <ele>215.95</ele>
        <time>2016-07-30T12:43:28Z</time>
      </trkpt>
      <trkpt lat="45.19732" lon="5.44316">
        <ele>215.95</ele>
        <time>2016-07-30T12:43:29Z</time>
      </trkpt>
      <trkpt lat="45.1974" lon="5.44322">
        <ele>215.95</ele>
        <time>2016-07-30T12:43:30Z</time>
      </trkpt>
      <trkpt lat="45.19748" lon="5.44329">
        <ele>215.47</ele>
        <time>2016-07-30T12:43:31Z</time>
      </trkpt>
      <trkpt lat="45.19756" lon="5.44335">
        <ele>214.51</ele>
        <time>2016-07-30T12:43:32Z</time>
      </trkpt>
      <trkpt lat="45.19776" lon="5.44348">
        <ele>214.03</ele>
        <time>2016-07-30T12:43:35Z</time>
      </trkpt>
      <trkpt lat="45.19781" lon="5.4435">
        <ele>213.55</ele>
        <time>2016-07-30T12:43:36Z</time>
      </trkpt>
      <trkpt lat="45.19813" lon="5.44355">
        <ele>212.59</ele>
        <time>2016-07-30T12:43:45Z</time>
      </trkpt>
      <trkpt lat="45.1981" lon="5.44352">
        <ele>212.59</ele>
        <time>2016-07-30T12:43:58Z</time>
      </trkpt>
      <trkpt lat="45.1982" lon="5.44332">
        <ele>212.59</ele>
        <time>2016-07-30T12:44:12Z</time>
      </trkpt>
      <trkpt lat="45.19822" lon="5.44223">
        <ele>212.59</ele>
        <time>2016-07-30T12:44:27Z</time>
      </trkpt>
      <trkpt lat="45.19822" lon="5.43993">
        <ele>213.07</ele>
        <time>2016-07-30T12:44:53Z</time>
      </trkpt>
      <trkpt lat="45.1982" lon="5.43805">
        <ele>215.95</ele>
        <time>2016-07-30T12:45:15Z</time>
      </trkpt>
      <trkpt lat="45.19809" lon="5.43636">
        <ele>217.4</ele>
        <time>2016-07-30T12:45:36Z</time>
      </trkpt>
      <trkpt lat="45.19771" lon="5.43439">
        <ele>215.95</ele>
        <time>2016-07-30T12:45:58Z</time>
      </trkpt>
      <trkpt lat="45.19745" lon="5.43294">
        <ele>217.4</ele>
        <time>2016-07-30T12:46:15Z</time>
      </trkpt>
      <trkpt lat="45.19713" lon="5.43119">
        <ele>219.8</ele>
        <time>2016-07-30T12:46:38Z</time>
      </trkpt>
      <trkpt lat="45.19659" lon="5.42992">
        <ele>221.24</ele>
        <time>2016-07-30T12:46:56Z</time>
      </trkpt>
      <trkpt lat="45.19566" lon="5.42882">
        <ele>223.16</ele>
        <time>2016-07-30T12:47:17Z</time>
      </trkpt>
      <trkpt lat="45.19463" lon="5.42767">
        <ele>225.09</ele>
        <time>2016-07-30T12:47:39Z</time>
      </trkpt>
      <trkpt lat="45.1943" lon="5.42723">
        <ele>226.05</ele>
        <time>2016-07-30T12:47:47Z</time>
      </trkpt>
      <trkpt lat="45.19428" lon="5.42715">
        <ele>226.05</ele>
        <time>2016-07-30T12:47:48Z</time>
      </trkpt>
      <trkpt lat="45.19427" lon="5.42706">
        <ele>226.05</ele>
        <time>2016-07-30T12:47:49Z</time>
      </trkpt>
      <trkpt lat="45.19427" lon="5.42696">
        <ele>224.61</ele>
        <time>2016-07-30T12:47:50Z</time>
      </trkpt>
      <trkpt lat="45.19428" lon="5.42687">
        <ele>223.64</ele>
        <time>2016-07-30T12:47:51Z</time>
      </trkpt>
      <trkpt lat="45.1943" lon="5.42677">
        <ele>222.68</ele>
        <time>2016-07-30T12:47:52Z</time>
      </trkpt>
      <trkpt lat="45.19432" lon="5.42665">
        <ele>221.24</ele>
        <time>2016-07-30T12:47:53Z</time>
      </trkpt>
      <trkpt lat="45.19436" lon="5.42651">
        <ele>219.8</ele>
        <time>2016-07-30T12:47:54Z</time>
      </trkpt>
      <trkpt lat="45.19446" lon="5.42618">
        <ele>218.36</ele>
        <time>2016-07-30T12:47:57Z</time>
      </trkpt>
      <trkpt lat="45.19495" lon="5.42476">
        <ele>219.8</ele>
        <time>2016-07-30T12:48:11Z</time>
      </trkpt>
      <trkpt lat="45.19551" lon="5.42299">
        <ele>220.76</ele>
        <time>2016-07-30T12:48:33Z</time>
      </trkpt>
      <trkpt lat="45.19552" lon="5.42291">
        <ele>220.76</ele>
        <time>2016-07-30T12:48:34Z</time>
      </trkpt>
      <trkpt lat="45.19552" lon="5.42284">
        <ele>220.76</ele>
        <time>2016-07-30T12:48:35Z</time>
      </trkpt>
      <trkpt lat="45.19551" lon="5.42276">
        <ele>220.76</ele>
        <time>2016-07-30T12:48:36Z</time>
      </trkpt>
      <trkpt lat="45.19549" lon="5.42271">
        <ele>220.76</ele>
        <time>2016-07-30T12:48:37Z</time>
      </trkpt>
      <trkpt lat="45.19546" lon="5.42264">
        <ele>221.72</ele>
        <time>2016-07-30T12:48:38Z</time>
      </trkpt>
      <trkpt lat="45.19543" lon="5.42258">
        <ele>221.24</ele>
        <time>2016-07-30T12:48:39Z</time>
      </trkpt>
      <trkpt lat="45.1954" lon="5.42252">
        <ele>221.72</ele>
        <time>2016-07-30T12:48:40Z</time>
      </trkpt>
      <trkpt lat="45.19517" lon="5.42217">
        <ele>223.16</ele>
        <time>2016-07-30T12:48:47Z</time>
      </trkpt>
      <trkpt lat="45.19515" lon="5.42212">
        <ele>223.64</ele>
        <time>2016-07-30T12:48:48Z</time>
      </trkpt>
      <trkpt lat="45.19514" lon="5.42206">
        <ele>223.64</ele>
        <time>2016-07-30T12:48:49Z</time>
      </trkpt>
      <trkpt lat="45.19513" lon="5.42199">
        <ele>223.64</ele>
        <time>2016-07-30T12:48:50Z</time>
      </trkpt>
      <trkpt lat="45.19513" lon="5.42193">
        <ele>223.64</ele>
        <time>2016-07-30T12:48:51Z</time>
      </trkpt>
      <trkpt lat="45.19513" lon="5.42187">
        <ele>224.12</ele>
        <time>2016-07-30T12:48:52Z</time>
      </trkpt>
      <trkpt lat="45.19513" lon="5.4218">
        <ele>224.61</ele>
        <time>2016-07-30T12:48:53Z</time>
      </trkpt>
      <trkpt lat="45.19503" lon="5.42075">
        <ele>227.01</ele>
        <time>2016-07-30T12:49:11Z</time>
      </trkpt>
      <trkpt lat="45.195" lon="5.42058">
        <ele>227.49</ele>
        <time>2016-07-30T12:49:14Z</time>
      </trkpt>
      <trkpt lat="45.195" lon="5.42052">
        <ele>227.97</ele>
        <time>2016-07-30T12:49:15Z</time>
      </trkpt>
      <trkpt lat="45.19501" lon="5.42046">
        <ele>227.97</ele>
        <time>2016-07-30T12:49:16Z</time>
      </trkpt>
      <trkpt lat="45.19502" lon="5.4204">
        <ele>227.97</ele>
        <time>2016-07-30T12:49:17Z</time>
      </trkpt>
      <trkpt lat="45.19503" lon="5.42034">
        <ele>228.45</ele>
        <time>2016-07-30T12:49:18Z</time>
      </trkpt>
      <trkpt lat="45.19505" lon="5.42028">
        <ele>228.45</ele>
        <time>2016-07-30T12:49:19Z</time>
      </trkpt>
      <trkpt lat="45.19507" lon="5.42023">
        <ele>228.93</ele>
        <time>2016-07-30T12:49:20Z</time>
      </trkpt>
      <trkpt lat="45.1951" lon="5.42018">
        <ele>228.93</ele>
        <time>2016-07-30T12:49:21Z</time>
      </trkpt>
      <trkpt lat="45.19513" lon="5.42014">
        <ele>228.93</ele>
        <time>2016-07-30T12:49:22Z</time>
      </trkpt>
      <trkpt lat="45.19516" lon="5.42011">
        <ele>229.41</ele>
        <time>2016-07-30T12:49:23Z</time>
      </trkpt>
      <trkpt lat="45.1952" lon="5.42007">
        <ele>229.41</ele>
        <time>2016-07-30T12:49:24Z</time>
      </trkpt>
      <trkpt lat="45.1955" lon="5.41977">
        <ele>231.33</ele>
        <time>2016-07-30T12:49:33Z</time>
      </trkpt>
      <trkpt lat="45.19554" lon="5.41974">
        <ele>231.33</ele>
        <time>2016-07-30T12:49:34Z</time>
      </trkpt>
      <trkpt lat="45.19602" lon="5.41962">
        <ele>232.78</ele>
        <time>2016-07-30T12:49:46Z</time>
      </trkpt>
      <trkpt lat="45.19664" lon="5.41924">
        <ele>235.66</ele>
        <time>2016-07-30T12:50:02Z</time>
      </trkpt>
      <trkpt lat="45.19667" lon="5.4192">
        <ele>235.66</ele>
        <time>2016-07-30T12:50:03Z</time>
      </trkpt>
      <trkpt lat="45.19669" lon="5.41915">
        <ele>236.14</ele>
        <time>2016-07-30T12:50:04Z</time>
      </trkpt>
      <trkpt lat="45.19706" lon="5.41825">
        <ele>239.02</ele>
        <time>2016-07-30T12:50:22Z</time>
      </trkpt>
      <trkpt lat="45.1971" lon="5.41821">
        <ele>239.02</ele>
        <time>2016-07-30T12:50:23Z</time>
      </trkpt>
      <trkpt lat="45.19737" lon="5.41798">
        <ele>239.99</ele>
        <time>2016-07-30T12:50:30Z</time>
      </trkpt>
      <trkpt lat="45.19741" lon="5.41796">
        <ele>239.99</ele>
        <time>2016-07-30T12:50:31Z</time>
      </trkpt>
      <trkpt lat="45.19745" lon="5.41795">
        <ele>240.47</ele>
        <time>2016-07-30T12:50:32Z</time>
      </trkpt>
      <trkpt lat="45.19749" lon="5.41794">
        <ele>240.47</ele>
        <time>2016-07-30T12:50:33Z</time>
      </trkpt>
      <trkpt lat="45.19754" lon="5.41794">
        <ele>240.47</ele>
        <time>2016-07-30T12:50:34Z</time>
      </trkpt>
      <trkpt lat="45.19758" lon="5.41795">
        <ele>240.47</ele>
        <time>2016-07-30T12:50:35Z</time>
      </trkpt>
      <trkpt lat="45.19823" lon="5.41794">
        <ele>242.87</ele>
        <time>2016-07-30T12:50:51Z</time>
      </trkpt>
      <trkpt lat="45.19827" lon="5.41792">
        <ele>243.35</ele>
        <time>2016-07-30T12:50:52Z</time>
      </trkpt>
      <trkpt lat="45.19831" lon="5.4179">
        <ele>243.35</ele>
        <time>2016-07-30T12:50:53Z</time>
      </trkpt>
      <trkpt lat="45.19847" lon="5.41776">
        <ele>244.31</ele>
        <time>2016-07-30T12:50:57Z</time>
      </trkpt>
      <trkpt lat="45.1985" lon="5.41773">
        <ele>244.31</ele>
        <time>2016-07-30T12:50:58Z</time>
      </trkpt>
      <trkpt lat="45.19853" lon="5.41769">
        <ele>244.31</ele>
        <time>2016-07-30T12:50:59Z</time>
      </trkpt>
      <trkpt lat="45.19888" lon="5.41691">
        <ele>246.72</ele>
        <time>2016-07-30T12:51:14Z</time>
      </trkpt>
      <trkpt lat="45.19946" lon="5.41665">
        <ele>249.12</ele>
        <time>2016-07-30T12:51:28Z</time>
      </trkpt>
      <trkpt lat="45.20012" lon="5.41649">
        <ele>251.04</ele>
        <time>2016-07-30T12:51:44Z</time>
      </trkpt>
      <trkpt lat="45.20016" lon="5.4165">
        <ele>251.04</ele>
        <time>2016-07-30T12:51:45Z</time>
      </trkpt>
      <trkpt lat="45.2002" lon="5.41651">
        <ele>250.56</ele>
        <time>2016-07-30T12:51:46Z</time>
      </trkpt>
      <trkpt lat="45.20024" lon="5.41654">
        <ele>250.56</ele>
        <time>2016-07-30T12:51:47Z</time>
      </trkpt>
      <trkpt lat="45.20028" lon="5.41658">
        <ele>250.56</ele>
        <time>2016-07-30T12:51:48Z</time>
      </trkpt>
      <trkpt lat="45.20031" lon="5.41663">
        <ele>250.56</ele>
        <time>2016-07-30T12:51:49Z</time>
      </trkpt>
      <trkpt lat="45.20034" lon="5.41668">
        <ele>251.04</ele>
        <time>2016-07-30T12:51:50Z</time>
      </trkpt>
      <trkpt lat="45.20036" lon="5.41674">
        <ele>251.04</ele>
        <time>2016-07-30T12:51:51Z</time>
      </trkpt>
      <trkpt lat="45.20038" lon="5.4168">
        <ele>251.04</ele>
        <time>2016-07-30T12:51:52Z</time>
      </trkpt>
      <trkpt lat="45.20039" lon="5.41687">
        <ele>251.04</ele>
        <time>2016-07-30T12:51:53Z</time>
      </trkpt>
      <trkpt lat="45.20039" lon="5.41694">
        <ele>251.04</ele>
        <time>2016-07-30T12:51:54Z</time>
      </trkpt>
      <trkpt lat="45.20037" lon="5.41701">
        <ele>251.04</ele>
        <time>2016-07-30T12:51:55Z</time>
      </trkpt>
      <trkpt lat="45.20036" lon="5.41708">
        <ele>251.04</ele>
        <time>2016-07-30T12:51:56Z</time>
      </trkpt>
      <trkpt lat="45.20035" lon="5.41715">
        <ele>250.08</ele>
        <time>2016-07-30T12:51:57Z</time>
      </trkpt>
      <trkpt lat="45.20035" lon="5.41722">
        <ele>250.08</ele>
        <time>2016-07-30T12:51:58Z</time>
      </trkpt>
      <trkpt lat="45.20035" lon="5.41729">
        <ele>250.08</ele>
        <time>2016-07-30T12:51:59Z</time>
      </trkpt>
      <trkpt lat="45.20035" lon="5.41736">
        <ele>250.08</ele>
        <time>2016-07-30T12:52:00Z</time>
      </trkpt>
      <trkpt lat="45.20044" lon="5.41758">
        <ele>251.52</ele>
        <time>2016-07-30T12:52:05Z</time>
      </trkpt>
      <trkpt lat="45.20049" lon="5.41759">
        <ele>251.52</ele>
        <time>2016-07-30T12:52:06Z</time>
      </trkpt>
      <trkpt lat="45.20054" lon="5.41759">
        <ele>251.52</ele>
        <time>2016-07-30T12:52:07Z</time>
      </trkpt>
      <trkpt lat="45.20058" lon="5.41759">
        <ele>251.52</ele>
        <time>2016-07-30T12:52:08Z</time>
      </trkpt>
      <trkpt lat="45.20062" lon="5.41758">
        <ele>251.52</ele>
        <time>2016-07-30T12:52:09Z</time>
      </trkpt>
      <trkpt lat="45.20067" lon="5.41756">
        <ele>252</ele>
        <time>2016-07-30T12:52:10Z</time>
      </trkpt>
      <trkpt lat="45.20071" lon="5.41753">
        <ele>252</ele>
        <time>2016-07-30T12:52:11Z</time>
      </trkpt>
      <trkpt lat="45.20075" lon="5.41751">
        <ele>252</ele>
        <time>2016-07-30T12:52:12Z</time>
      </trkpt>
      <trkpt lat="45.20078" lon="5.41746">
        <ele>252</ele>
        <time>2016-07-30T12:52:13Z</time>
      </trkpt>
      <trkpt lat="45.20082" lon="5.41737">
        <ele>252</ele>
        <time>2016-07-30T12:52:14Z</time>
      </trkpt>
      <trkpt lat="45.20086" lon="5.4173">
        <ele>252</ele>
        <time>2016-07-30T12:52:15Z</time>
      </trkpt>
      <trkpt lat="45.20144" lon="5.41624">
        <ele>252.96</ele>
        <time>2016-07-30T12:52:32Z</time>
      </trkpt>
      <trkpt lat="45.20205" lon="5.41508">
        <ele>254.41</ele>
        <time>2016-07-30T12:52:51Z</time>
      </trkpt>
      <trkpt lat="45.20266" lon="5.41394">
        <ele>256.81</ele>
        <time>2016-07-30T12:53:11Z</time>
      </trkpt>
      <trkpt lat="45.20283" lon="5.4137">
        <ele>257.77</ele>
        <time>2016-07-30T12:53:16Z</time>
      </trkpt>
      <trkpt lat="45.20287" lon="5.41367">
        <ele>257.77</ele>
        <time>2016-07-30T12:53:17Z</time>
      </trkpt>
      <trkpt lat="45.20292" lon="5.41365">
        <ele>257.77</ele>
        <time>2016-07-30T12:53:18Z</time>
      </trkpt>
      <trkpt lat="45.20304" lon="5.41361">
        <ele>257.77</ele>
        <time>2016-07-30T12:53:21Z</time>
      </trkpt>
      <trkpt lat="45.20308" lon="5.41357">
        <ele>258.25</ele>
        <time>2016-07-30T12:53:22Z</time>
      </trkpt>
      <trkpt lat="45.2031" lon="5.41352">
        <ele>258.25</ele>
        <time>2016-07-30T12:53:23Z</time>
      </trkpt>
      <trkpt lat="45.20311" lon="5.41347">
        <ele>258.25</ele>
        <time>2016-07-30T12:53:24Z</time>
      </trkpt>
      <trkpt lat="45.20311" lon="5.41341">
        <ele>258.73</ele>
        <time>2016-07-30T12:53:25Z</time>
      </trkpt>
      <trkpt lat="45.20311" lon="5.41334">
        <ele>258.73</ele>
        <time>2016-07-30T12:53:26Z</time>
      </trkpt>
      <trkpt lat="45.20311" lon="5.41327">
        <ele>258.73</ele>
        <time>2016-07-30T12:53:27Z</time>
      </trkpt>
      <trkpt lat="45.20312" lon="5.4132">
        <ele>258.73</ele>
        <time>2016-07-30T12:53:28Z</time>
      </trkpt>
      <trkpt lat="45.20313" lon="5.41314">
        <ele>258.73</ele>
        <time>2016-07-30T12:53:29Z</time>
      </trkpt>
      <trkpt lat="45.20318" lon="5.41294">
        <ele>258.73</ele>
        <time>2016-07-30T12:53:32Z</time>
      </trkpt>
      <trkpt lat="45.20374" lon="5.41194">
        <ele>260.17</ele>
        <time>2016-07-30T12:53:50Z</time>
      </trkpt>
      <trkpt lat="45.20442" lon="5.41106">
        <ele>262.58</ele>
        <time>2016-07-30T12:54:09Z</time>
      </trkpt>
      <trkpt lat="45.20533" lon="5.41034">
        <ele>263.54</ele>
        <time>2016-07-30T12:54:29Z</time>
      </trkpt>
      <trkpt lat="45.20579" lon="5.40952">
        <ele>265.46</ele>
        <time>2016-07-30T12:54:44Z</time>
      </trkpt>
      <trkpt lat="45.20625" lon="5.40854">
        <ele>266.9</ele>
        <time>2016-07-30T12:55:01Z</time>
      </trkpt>
      <trkpt lat="45.20683" lon="5.40748">
        <ele>268.83</ele>
        <time>2016-07-30T12:55:20Z</time>
      </trkpt>
      <trkpt lat="45.20686" lon="5.40743">
        <ele>268.83</ele>
        <time>2016-07-30T12:55:21Z</time>
      </trkpt>
      <trkpt lat="45.20745" lon="5.40653">
        <ele>269.31</ele>
        <time>2016-07-30T12:55:39Z</time>
      </trkpt>
      <trkpt lat="45.20792" lon="5.40573">
        <ele>271.23</ele>
        <time>2016-07-30T12:55:55Z</time>
      </trkpt>
      <trkpt lat="45.20848" lon="5.40473">
        <ele>272.67</ele>
        <time>2016-07-30T12:56:14Z</time>
      </trkpt>
      <trkpt lat="45.20912" lon="5.4036">
        <ele>275.56</ele>
        <time>2016-07-30T12:56:35Z</time>
      </trkpt>
      <trkpt lat="45.20934" lon="5.40302">
        <ele>276.04</ele>
        <time>2016-07-30T12:56:45Z</time>
      </trkpt>
      <trkpt lat="45.20937" lon="5.40297">
        <ele>276.04</ele>
        <time>2016-07-30T12:56:46Z</time>
      </trkpt>
      <trkpt lat="45.20972" lon="5.40227">
        <ele>276.52</ele>
        <time>2016-07-30T12:57:02Z</time>
      </trkpt>
      <trkpt lat="45.20973" lon="5.40217">
        <ele>277.48</ele>
        <time>2016-07-30T12:57:13Z</time>
      </trkpt>
      <trkpt lat="45.20971" lon="5.40217">
        <ele>277.48</ele>
        <time>2016-07-30T12:57:36Z</time>
      </trkpt>
      <trkpt lat="45.20973" lon="5.40212">
        <ele>277.48</ele>
        <time>2016-07-30T12:58:01Z</time>
      </trkpt>
      <trkpt lat="45.20984" lon="5.40178">
        <ele>276.04</ele>
        <time>2016-07-30T12:58:13Z</time>
      </trkpt>
      <trkpt lat="45.20959" lon="5.40108">
        <ele>273.63</ele>
        <time>2016-07-30T12:58:23Z</time>
      </trkpt>
      <trkpt lat="45.20953" lon="5.40099">
        <ele>273.15</ele>
        <time>2016-07-30T12:58:24Z</time>
      </trkpt>
      <trkpt lat="45.20948" lon="5.40091">
        <ele>273.15</ele>
        <time>2016-07-30T12:58:25Z</time>
      </trkpt>
      <trkpt lat="45.20942" lon="5.40083">
        <ele>273.15</ele>
        <time>2016-07-30T12:58:26Z</time>
      </trkpt>
      <trkpt lat="45.2089" lon="5.40029">
        <ele>272.67</ele>
        <time>2016-07-30T12:58:35Z</time>
      </trkpt>
      <trkpt lat="45.20883" lon="5.40027">
        <ele>272.67</ele>
        <time>2016-07-30T12:58:36Z</time>
      </trkpt>
      <trkpt lat="45.20877" lon="5.40027">
        <ele>274.11</ele>
        <time>2016-07-30T12:58:37Z</time>
      </trkpt>
      <trkpt lat="45.20788" lon="5.39993">
        <ele>274.59</ele>
        <time>2016-07-30T12:58:51Z</time>
      </trkpt>
      <trkpt lat="45.20745" lon="5.3998">
        <ele>274.59</ele>
        <time>2016-07-30T12:58:57Z</time>
      </trkpt>
      <trkpt lat="45.20738" lon="5.39976">
        <ele>274.59</ele>
        <time>2016-07-30T12:58:58Z</time>
      </trkpt>
      <trkpt lat="45.20657" lon="5.39945">
        <ele>275.56</ele>
        <time>2016-07-30T12:59:11Z</time>
      </trkpt>
      <trkpt lat="45.20652" lon="5.39945">
        <ele>275.56</ele>
        <time>2016-07-30T12:59:12Z</time>
      </trkpt>
      <trkpt lat="45.20647" lon="5.39948">
        <ele>275.56</ele>
        <time>2016-07-30T12:59:13Z</time>
      </trkpt>
      <trkpt lat="45.20644" lon="5.39952">
        <ele>275.56</ele>
        <time>2016-07-30T12:59:14Z</time>
      </trkpt>
      <trkpt lat="45.20641" lon="5.39956">
        <ele>275.56</ele>
        <time>2016-07-30T12:59:15Z</time>
      </trkpt>
      <trkpt lat="45.20637" lon="5.39962">
        <ele>273.63</ele>
        <time>2016-07-30T12:59:16Z</time>
      </trkpt>
      <trkpt lat="45.20634" lon="5.39968">
        <ele>273.15</ele>
        <time>2016-07-30T12:59:17Z</time>
      </trkpt>
      <trkpt lat="45.2056" lon="5.40061">
        <ele>270.27</ele>
        <time>2016-07-30T12:59:31Z</time>
      </trkpt>
      <trkpt lat="45.20451" lon="5.40165">
        <ele>267.86</ele>
        <time>2016-07-30T12:59:47Z</time>
      </trkpt>
      <trkpt lat="45.20392" lon="5.4024">
        <ele>266.9</ele>
        <time>2016-07-30T12:59:57Z</time>
      </trkpt>
      <trkpt lat="45.20386" lon="5.40246">
        <ele>266.9</ele>
        <time>2016-07-30T12:59:58Z</time>
      </trkpt>
      <trkpt lat="45.20379" lon="5.40251">
        <ele>266.9</ele>
        <time>2016-07-30T12:59:59Z</time>
      </trkpt>
      <trkpt lat="45.20372" lon="5.40253">
        <ele>266.9</ele>
        <time>2016-07-30T13:00:00Z</time>
      </trkpt>
      <trkpt lat="45.20365" lon="5.40255">
        <ele>266.9</ele>
        <time>2016-07-30T13:00:01Z</time>
      </trkpt>
      <trkpt lat="45.20358" lon="5.40258">
        <ele>266.9</ele>
        <time>2016-07-30T13:00:02Z</time>
      </trkpt>
      <trkpt lat="45.20351" lon="5.40263">
        <ele>267.38</ele>
        <time>2016-07-30T13:00:03Z</time>
      </trkpt>
      <trkpt lat="45.20346" lon="5.40269">
        <ele>267.38</ele>
        <time>2016-07-30T13:00:04Z</time>
      </trkpt>
      <trkpt lat="45.20341" lon="5.40276">
        <ele>267.38</ele>
        <time>2016-07-30T13:00:05Z</time>
      </trkpt>
      <trkpt lat="45.20338" lon="5.40283">
        <ele>267.38</ele>
        <time>2016-07-30T13:00:06Z</time>
      </trkpt>
      <trkpt lat="45.20335" lon="5.40289">
        <ele>267.38</ele>
        <time>2016-07-30T13:00:07Z</time>
      </trkpt>
      <trkpt lat="45.20322" lon="5.40309">
        <ele>268.35</ele>
        <time>2016-07-30T13:00:13Z</time>
      </trkpt>
      <trkpt lat="45.20319" lon="5.40308">
        <ele>268.35</ele>
        <time>2016-07-30T13:00:14Z</time>
      </trkpt>
      <trkpt lat="45.20317" lon="5.40306">
        <ele>268.35</ele>
        <time>2016-07-30T13:00:15Z</time>
      </trkpt>
      <trkpt lat="45.20316" lon="5.40302">
        <ele>268.35</ele>
        <time>2016-07-30T13:00:16Z</time>
      </trkpt>
      <trkpt lat="45.20315" lon="5.40297">
        <ele>268.35</ele>
        <time>2016-07-30T13:00:17Z</time>
      </trkpt>
      <trkpt lat="45.20307" lon="5.40276">
        <ele>268.35</ele>
        <time>2016-07-30T13:00:27Z</time>
      </trkpt>
      <trkpt lat="45.20304" lon="5.40274">
        <ele>268.35</ele>
        <time>2016-07-30T13:00:59Z</time>
      </trkpt>
      <trkpt lat="45.20277" lon="5.40251">
        <ele>268.35</ele>
        <time>2016-07-30T13:01:08Z</time>
      </trkpt>
      <trkpt lat="45.2021" lon="5.40186">
        <ele>267.38</ele>
        <time>2016-07-30T13:01:21Z</time>
      </trkpt>
      <trkpt lat="45.20104" lon="5.40082">
        <ele>264.98</ele>
        <time>2016-07-30T13:01:39Z</time>
      </trkpt>
      <trkpt lat="45.2001" lon="5.39989">
        <ele>263.54</ele>
        <time>2016-07-30T13:01:55Z</time>
      </trkpt>
      <trkpt lat="45.19912" lon="5.39899">
        <ele>261.62</ele>
        <time>2016-07-30T13:02:11Z</time>
      </trkpt>
      <trkpt lat="45.19804" lon="5.39793">
        <ele>259.69</ele>
        <time>2016-07-30T13:02:29Z</time>
      </trkpt>
      <trkpt lat="45.19711" lon="5.3971">
        <ele>258.25</ele>
        <time>2016-07-30T13:02:44Z</time>
      </trkpt>
      <trkpt lat="45.19693" lon="5.397">
        <ele>255.85</ele>
        <time>2016-07-30T13:02:47Z</time>
      </trkpt>
      <trkpt lat="45.19664" lon="5.39732">
        <ele>255.85</ele>
        <time>2016-07-30T13:02:53Z</time>
      </trkpt>
      <trkpt lat="45.19619" lon="5.39765">
        <ele>255.37</ele>
        <time>2016-07-30T13:03:02Z</time>
      </trkpt>
      <trkpt lat="45.1958" lon="5.39757">
        <ele>255.37</ele>
        <time>2016-07-30T13:03:08Z</time>
      </trkpt>
      <trkpt lat="45.19548" lon="5.39727">
        <ele>255.37</ele>
        <time>2016-07-30T13:03:14Z</time>
      </trkpt>
      <trkpt lat="45.19518" lon="5.3967">
        <ele>255.37</ele>
        <time>2016-07-30T13:03:22Z</time>
      </trkpt>
      <trkpt lat="45.19474" lon="5.39621">
        <ele>255.37</ele>
        <time>2016-07-30T13:03:31Z</time>
      </trkpt>
      <trkpt lat="45.1942" lon="5.3957">
        <ele>253.93</ele>
        <time>2016-07-30T13:03:40Z</time>
      </trkpt>
      <trkpt lat="45.19411" lon="5.39522">
        <ele>253.93</ele>
        <time>2016-07-30T13:03:46Z</time>
      </trkpt>
      <trkpt lat="45.19414" lon="5.39514">
        <ele>253.93</ele>
        <time>2016-07-30T13:03:47Z</time>
      </trkpt>
      <trkpt lat="45.19422" lon="5.3949">
        <ele>253.93</ele>
        <time>2016-07-30T13:03:50Z</time>
      </trkpt>
      <trkpt lat="45.1943" lon="5.39478">
        <ele>253.93</ele>
        <time>2016-07-30T13:03:52Z</time>
      </trkpt>
      <trkpt lat="45.19434" lon="5.39464">
        <ele>255.85</ele>
        <time>2016-07-30T13:03:55Z</time>
      </trkpt>
      <trkpt lat="45.19428" lon="5.39457">
        <ele>256.33</ele>
        <time>2016-07-30T13:03:57Z</time>
      </trkpt>
      <trkpt lat="45.19425" lon="5.39454">
        <ele>256.33</ele>
        <time>2016-07-30T13:03:58Z</time>
      </trkpt>
      <trkpt lat="45.19421" lon="5.39452">
        <ele>256.33</ele>
        <time>2016-07-30T13:03:59Z</time>
      </trkpt>
      <trkpt lat="45.19416" lon="5.39451">
        <ele>256.33</ele>
        <time>2016-07-30T13:04:00Z</time>
      </trkpt>
      <trkpt lat="45.1941" lon="5.3945">
        <ele>256.33</ele>
        <time>2016-07-30T13:04:01Z</time>
      </trkpt>
      <trkpt lat="45.19398" lon="5.39446">
        <ele>256.33</ele>
        <time>2016-07-30T13:04:03Z</time>
      </trkpt>
      <trkpt lat="45.19393" lon="5.39443">
        <ele>256.81</ele>
        <time>2016-07-30T13:04:04Z</time>
      </trkpt>
      <trkpt lat="45.19388" lon="5.39439">
        <ele>256.81</ele>
        <time>2016-07-30T13:04:05Z</time>
      </trkpt>
      <trkpt lat="45.19384" lon="5.39434">
        <ele>256.81</ele>
        <time>2016-07-30T13:04:06Z</time>
      </trkpt>
      <trkpt lat="45.1938" lon="5.39427">
        <ele>256.81</ele>
        <time>2016-07-30T13:04:07Z</time>
      </trkpt>
      <trkpt lat="45.19377" lon="5.39421">
        <ele>256.81</ele>
        <time>2016-07-30T13:04:08Z</time>
      </trkpt>
      <trkpt lat="45.19375" lon="5.39414">
        <ele>257.29</ele>
        <time>2016-07-30T13:04:09Z</time>
      </trkpt>
      <trkpt lat="45.19373" lon="5.39407">
        <ele>257.77</ele>
        <time>2016-07-30T13:04:10Z</time>
      </trkpt>
      <trkpt lat="45.19372" lon="5.39399">
        <ele>257.77</ele>
        <time>2016-07-30T13:04:11Z</time>
      </trkpt>
      <trkpt lat="45.19371" lon="5.39392">
        <ele>257.77</ele>
        <time>2016-07-30T13:04:12Z</time>
      </trkpt>
      <trkpt lat="45.19363" lon="5.39305">
        <ele>260.17</ele>
        <time>2016-07-30T13:04:25Z</time>
      </trkpt>
      <trkpt lat="45.19362" lon="5.393">
        <ele>260.65</ele>
        <time>2016-07-30T13:04:26Z</time>
      </trkpt>
      <trkpt lat="45.1936" lon="5.39295">
        <ele>260.65</ele>
        <time>2016-07-30T13:04:27Z</time>
      </trkpt>
      <trkpt lat="45.19357" lon="5.39291">
        <ele>260.65</ele>
        <time>2016-07-30T13:04:28Z</time>
      </trkpt>
      <trkpt lat="45.19355" lon="5.39286">
        <ele>261.14</ele>
        <time>2016-07-30T13:04:29Z</time>
      </trkpt>
      <trkpt lat="45.19352" lon="5.39283">
        <ele>261.14</ele>
        <time>2016-07-30T13:04:30Z</time>
      </trkpt>
      <trkpt lat="45.19348" lon="5.39279">
        <ele>261.14</ele>
        <time>2016-07-30T13:04:31Z</time>
      </trkpt>
      <trkpt lat="45.19345" lon="5.39276">
        <ele>261.14</ele>
        <time>2016-07-30T13:04:32Z</time>
      </trkpt>
      <trkpt lat="45.19331" lon="5.39262">
        <ele>261.14</ele>
        <time>2016-07-30T13:04:36Z</time>
      </trkpt>
      <trkpt lat="45.19329" lon="5.39257">
        <ele>261.14</ele>
        <time>2016-07-30T13:04:37Z</time>
      </trkpt>
      <trkpt lat="45.19327" lon="5.39252">
        <ele>261.14</ele>
        <time>2016-07-30T13:04:38Z</time>
      </trkpt>
      <trkpt lat="45.19327" lon="5.39245">
        <ele>261.14</ele>
        <time>2016-07-30T13:04:39Z</time>
      </trkpt>
      <trkpt lat="45.19327" lon="5.39241">
        <ele>261.14</ele>
        <time>2016-07-30T13:04:40Z</time>
      </trkpt>
      <trkpt lat="45.19328" lon="5.39237">
        <ele>261.62</ele>
        <time>2016-07-30T13:04:41Z</time>
      </trkpt>
      <trkpt lat="45.19315" lon="5.39197">
        <ele>261.62</ele>
        <time>2016-07-30T13:04:52Z</time>
      </trkpt>
      <trkpt lat="45.19252" lon="5.3913">
        <ele>258.73</ele>
        <time>2016-07-30T13:05:06Z</time>
      </trkpt>
      <trkpt lat="45.19224" lon="5.39106">
        <ele>256.81</ele>
        <time>2016-07-30T13:05:10Z</time>
      </trkpt>
      <trkpt lat="45.19189" lon="5.39065">
        <ele>253.44</ele>
        <time>2016-07-30T13:05:15Z</time>
      </trkpt>
      <trkpt lat="45.19182" lon="5.39056">
        <ele>253.44</ele>
        <time>2016-07-30T13:05:16Z</time>
      </trkpt>
      <trkpt lat="45.19096" lon="5.38986">
        <ele>251.04</ele>
        <time>2016-07-30T13:05:27Z</time>
      </trkpt>
      <trkpt lat="45.19088" lon="5.38982">
        <ele>250.56</ele>
        <time>2016-07-30T13:05:28Z</time>
      </trkpt>
      <trkpt lat="45.19081" lon="5.38977">
        <ele>251.04</ele>
        <time>2016-07-30T13:05:29Z</time>
      </trkpt>
      <trkpt lat="45.19075" lon="5.3897">
        <ele>250.56</ele>
        <time>2016-07-30T13:05:30Z</time>
      </trkpt>
      <trkpt lat="45.1907" lon="5.38962">
        <ele>251.04</ele>
        <time>2016-07-30T13:05:31Z</time>
      </trkpt>
      <trkpt lat="45.19066" lon="5.3895">
        <ele>250.56</ele>
        <time>2016-07-30T13:05:32Z</time>
      </trkpt>
      <trkpt lat="45.19063" lon="5.3894">
        <ele>250.56</ele>
        <time>2016-07-30T13:05:33Z</time>
      </trkpt>
      <trkpt lat="45.19061" lon="5.38928">
        <ele>250.56</ele>
        <time>2016-07-30T13:05:34Z</time>
      </trkpt>
      <trkpt lat="45.19059" lon="5.38917">
        <ele>250.56</ele>
        <time>2016-07-30T13:05:35Z</time>
      </trkpt>
      <trkpt lat="45.19052" lon="5.38887">
        <ele>250.56</ele>
        <time>2016-07-30T13:05:38Z</time>
      </trkpt>
      <trkpt lat="45.19048" lon="5.38878">
        <ele>250.56</ele>
        <time>2016-07-30T13:05:39Z</time>
      </trkpt>
      <trkpt lat="45.19042" lon="5.38871">
        <ele>249.6</ele>
        <time>2016-07-30T13:05:40Z</time>
      </trkpt>
      <trkpt lat="45.19035" lon="5.38865">
        <ele>249.6</ele>
        <time>2016-07-30T13:05:41Z</time>
      </trkpt>
      <trkpt lat="45.19029" lon="5.3886">
        <ele>249.6</ele>
        <time>2016-07-30T13:05:42Z</time>
      </trkpt>
      <trkpt lat="45.19022" lon="5.38856">
        <ele>249.6</ele>
        <time>2016-07-30T13:05:43Z</time>
      </trkpt>
      <trkpt lat="45.18956" lon="5.38822">
        <ele>250.56</ele>
        <time>2016-07-30T13:05:53Z</time>
      </trkpt>
      <trkpt lat="45.18925" lon="5.38807">
        <ele>250.56</ele>
        <time>2016-07-30T13:05:59Z</time>
      </trkpt>
      <trkpt lat="45.18895" lon="5.38792">
        <ele>249.12</ele>
        <time>2016-07-30T13:06:08Z</time>
      </trkpt>
      <trkpt lat="45.1889" lon="5.3879">
        <ele>249.12</ele>
        <time>2016-07-30T13:06:09Z</time>
      </trkpt>
      <trkpt lat="45.18802" lon="5.38746">
        <ele>247.68</ele>
        <time>2016-07-30T13:06:24Z</time>
      </trkpt>
      <trkpt lat="45.18727" lon="5.38707">
        <ele>244.31</ele>
        <time>2016-07-30T13:06:35Z</time>
      </trkpt>
      <trkpt lat="45.1872" lon="5.38703">
        <ele>244.31</ele>
        <time>2016-07-30T13:06:36Z</time>
      </trkpt>
      <trkpt lat="45.1858" lon="5.38613">
        <ele>243.83</ele>
        <time>2016-07-30T13:06:56Z</time>
      </trkpt>
      <trkpt lat="45.18462" lon="5.38546">
        <ele>239.99</ele>
        <time>2016-07-30T13:07:11Z</time>
      </trkpt>
      <trkpt lat="45.18359" lon="5.38469">
        <ele>239.02</ele>
        <time>2016-07-30T13:07:25Z</time>
      </trkpt>
      <trkpt lat="45.18282" lon="5.38426">
        <ele>237.58</ele>
        <time>2016-07-30T13:07:36Z</time>
      </trkpt>
      <trkpt lat="45.18184" lon="5.38429">
        <ele>236.14</ele>
        <time>2016-07-30T13:07:49Z</time>
      </trkpt>
      <trkpt lat="45.18041" lon="5.38402">
        <ele>234.22</ele>
        <time>2016-07-30T13:08:07Z</time>
      </trkpt>
      <trkpt lat="45.17917" lon="5.38409">
        <ele>232.78</ele>
        <time>2016-07-30T13:08:22Z</time>
      </trkpt>
      <trkpt lat="45.17857" lon="5.38445">
        <ele>232.78</ele>
        <time>2016-07-30T13:08:30Z</time>
      </trkpt>
      <trkpt lat="45.1785" lon="5.38448">
        <ele>232.3</ele>
        <time>2016-07-30T13:08:31Z</time>
      </trkpt>
      <trkpt lat="45.17842" lon="5.38448">
        <ele>232.3</ele>
        <time>2016-07-30T13:08:32Z</time>
      </trkpt>
      <trkpt lat="45.17834" lon="5.38448">
        <ele>232.3</ele>
        <time>2016-07-30T13:08:33Z</time>
      </trkpt>
      <trkpt lat="45.17826" lon="5.38447">
        <ele>232.3</ele>
        <time>2016-07-30T13:08:34Z</time>
      </trkpt>
      <trkpt lat="45.17819" lon="5.38445">
        <ele>232.3</ele>
        <time>2016-07-30T13:08:35Z</time>
      </trkpt>
      <trkpt lat="45.17804" lon="5.38441">
        <ele>232.3</ele>
        <time>2016-07-30T13:08:37Z</time>
      </trkpt>
      <trkpt lat="45.17782" lon="5.38438">
        <ele>232.3</ele>
        <time>2016-07-30T13:08:40Z</time>
      </trkpt>
      <trkpt lat="45.17775" lon="5.38438">
        <ele>232.3</ele>
        <time>2016-07-30T13:08:41Z</time>
      </trkpt>
      <trkpt lat="45.17768" lon="5.38439">
        <ele>232.3</ele>
        <time>2016-07-30T13:08:42Z</time>
      </trkpt>
      <trkpt lat="45.17761" lon="5.38441">
        <ele>232.3</ele>
        <time>2016-07-30T13:08:43Z</time>
      </trkpt>
      <trkpt lat="45.17755" lon="5.38443">
        <ele>232.3</ele>
        <time>2016-07-30T13:08:44Z</time>
      </trkpt>
      <trkpt lat="45.17748" lon="5.38446">
        <ele>232.3</ele>
        <time>2016-07-30T13:08:45Z</time>
      </trkpt>
      <trkpt lat="45.17709" lon="5.38469">
        <ele>231.33</ele>
        <time>2016-07-30T13:08:51Z</time>
      </trkpt>
      <trkpt lat="45.17702" lon="5.38472">
        <ele>231.33</ele>
        <time>2016-07-30T13:08:52Z</time>
      </trkpt>
      <trkpt lat="45.17696" lon="5.38473">
        <ele>231.33</ele>
        <time>2016-07-30T13:08:53Z</time>
      </trkpt>
      <trkpt lat="45.17689" lon="5.38474">
        <ele>231.33</ele>
        <time>2016-07-30T13:08:54Z</time>
      </trkpt>
      <trkpt lat="45.17682" lon="5.38474">
        <ele>231.33</ele>
        <time>2016-07-30T13:08:55Z</time>
      </trkpt>
      <trkpt lat="45.1759" lon="5.38441">
        <ele>230.85</ele>
        <time>2016-07-30T13:09:08Z</time>
      </trkpt>
      <trkpt lat="45.17514" lon="5.38358">
        <ele>229.41</ele>
        <time>2016-07-30T13:09:20Z</time>
      </trkpt>
      <trkpt lat="45.17379" lon="5.38242">
        <ele>226.53</ele>
        <time>2016-07-30T13:09:39Z</time>
      </trkpt>
      <trkpt lat="45.17284" lon="5.38241">
        <ele>225.09</ele>
        <time>2016-07-30T13:09:51Z</time>
      </trkpt>
      <trkpt lat="45.17178" lon="5.38255">
        <ele>222.68</ele>
        <time>2016-07-30T13:10:04Z</time>
      </trkpt>
      <trkpt lat="45.17158" lon="5.38258">
        <ele>219.32</ele>
        <time>2016-07-30T13:10:06Z</time>
      </trkpt>
      <trkpt lat="45.17109" lon="5.38263">
        <ele>216.91</ele>
        <time>2016-07-30T13:10:11Z</time>
      </trkpt>
      <trkpt lat="45.17099" lon="5.38262">
        <ele>216.91</ele>
        <time>2016-07-30T13:10:12Z</time>
      </trkpt>
      <trkpt lat="45.17089" lon="5.3826">
        <ele>216.91</ele>
        <time>2016-07-30T13:10:13Z</time>
      </trkpt>
      <trkpt lat="45.1708" lon="5.38255">
        <ele>216.91</ele>
        <time>2016-07-30T13:10:14Z</time>
      </trkpt>
      <trkpt lat="45.17072" lon="5.38251">
        <ele>218.36</ele>
        <time>2016-07-30T13:10:15Z</time>
      </trkpt>
      <trkpt lat="45.17063" lon="5.38245">
        <ele>218.36</ele>
        <time>2016-07-30T13:10:16Z</time>
      </trkpt>
      <trkpt lat="45.17056" lon="5.38239">
        <ele>218.36</ele>
        <time>2016-07-30T13:10:17Z</time>
      </trkpt>
      <trkpt lat="45.17048" lon="5.38232">
        <ele>218.36</ele>
        <time>2016-07-30T13:10:18Z</time>
      </trkpt>
      <trkpt lat="45.17041" lon="5.38225">
        <ele>219.32</ele>
        <time>2016-07-30T13:10:19Z</time>
      </trkpt>
      <trkpt lat="45.17034" lon="5.38217">
        <ele>219.32</ele>
        <time>2016-07-30T13:10:20Z</time>
      </trkpt>
      <trkpt lat="45.16965" lon="5.38098">
        <ele>219.8</ele>
        <time>2016-07-30T13:10:33Z</time>
      </trkpt>
      <trkpt lat="45.16912" lon="5.37929">
        <ele>220.76</ele>
        <time>2016-07-30T13:10:51Z</time>
      </trkpt>
      <trkpt lat="45.16848" lon="5.37848">
        <ele>221.24</ele>
        <time>2016-07-30T13:11:04Z</time>
      </trkpt>
      <trkpt lat="45.16827" lon="5.37823">
        <ele>219.8</ele>
        <time>2016-07-30T13:11:08Z</time>
      </trkpt>
      <trkpt lat="45.16752" lon="5.37699">
        <ele>217.88</ele>
        <time>2016-07-30T13:11:24Z</time>
      </trkpt>
      <trkpt lat="45.16672" lon="5.37589">
        <ele>216.43</ele>
        <time>2016-07-30T13:11:40Z</time>
      </trkpt>
      <trkpt lat="45.16588" lon="5.37469">
        <ele>214.51</ele>
        <time>2016-07-30T13:11:56Z</time>
      </trkpt>
      <trkpt lat="45.16487" lon="5.37289">
        <ele>211.63</ele>
        <time>2016-07-30T13:12:17Z</time>
      </trkpt>
      <trkpt lat="45.16461" lon="5.37236">
        <ele>214.99</ele>
        <time>2016-07-30T13:12:23Z</time>
      </trkpt>
      <trkpt lat="45.16457" lon="5.37227">
        <ele>214.99</ele>
        <time>2016-07-30T13:12:24Z</time>
      </trkpt>
      <trkpt lat="45.16391" lon="5.3712">
        <ele>214.99</ele>
        <time>2016-07-30T13:12:38Z</time>
      </trkpt>
      <trkpt lat="45.16374" lon="5.3709">
        <ele>212.11</ele>
        <time>2016-07-30T13:12:42Z</time>
      </trkpt>
      <trkpt lat="45.16369" lon="5.37083">
        <ele>212.11</ele>
        <time>2016-07-30T13:12:43Z</time>
      </trkpt>
      <trkpt lat="45.16365" lon="5.37077">
        <ele>212.11</ele>
        <time>2016-07-30T13:12:44Z</time>
      </trkpt>
      <trkpt lat="45.1636" lon="5.3707">
        <ele>212.11</ele>
        <time>2016-07-30T13:12:45Z</time>
      </trkpt>
      <trkpt lat="45.16356" lon="5.37062">
        <ele>212.11</ele>
        <time>2016-07-30T13:12:46Z</time>
      </trkpt>
      <trkpt lat="45.1626" lon="5.36922">
        <ele>212.11</ele>
        <time>2016-07-30T13:13:07Z</time>
      </trkpt>
      <trkpt lat="45.16178" lon="5.36811">
        <ele>211.63</ele>
        <time>2016-07-30T13:13:25Z</time>
      </trkpt>
      <trkpt lat="45.16078" lon="5.36731">
        <ele>213.07</ele>
        <time>2016-07-30T13:13:43Z</time>
      </trkpt>
      <trkpt lat="45.16003" lon="5.36645">
        <ele>214.03</ele>
        <time>2016-07-30T13:13:58Z</time>
      </trkpt>
      <trkpt lat="45.15971" lon="5.36604">
        <ele>213.55</ele>
        <time>2016-07-30T13:14:05Z</time>
      </trkpt>
      <trkpt lat="45.15917" lon="5.3651">
        <ele>215.95</ele>
        <time>2016-07-30T13:14:20Z</time>
      </trkpt>
      <trkpt lat="45.15856" lon="5.36447">
        <ele>215.95</ele>
        <time>2016-07-30T13:14:34Z</time>
      </trkpt>
      <trkpt lat="45.15787" lon="5.36416">
        <ele>216.43</ele>
        <time>2016-07-30T13:14:48Z</time>
      </trkpt>
      <trkpt lat="45.15716" lon="5.36365">
        <ele>217.4</ele>
        <time>2016-07-30T13:15:05Z</time>
      </trkpt>
      <trkpt lat="45.15644" lon="5.36284">
        <ele>217.88</ele>
        <time>2016-07-30T13:15:24Z</time>
      </trkpt>
      <trkpt lat="45.15568" lon="5.36229">
        <ele>220.28</ele>
        <time>2016-07-30T13:15:41Z</time>
      </trkpt>
      <trkpt lat="45.15535" lon="5.36208">
        <ele>220.76</ele>
        <time>2016-07-30T13:15:53Z</time>
      </trkpt>
      <trkpt lat="45.15527" lon="5.36211">
        <ele>220.76</ele>
        <time>2016-07-30T13:15:56Z</time>
      </trkpt>
      <trkpt lat="45.15525" lon="5.36215">
        <ele>219.32</ele>
        <time>2016-07-30T13:15:57Z</time>
      </trkpt>
      <trkpt lat="45.15523" lon="5.3622">
        <ele>219.32</ele>
        <time>2016-07-30T13:15:58Z</time>
      </trkpt>
      <trkpt lat="45.15522" lon="5.36226">
        <ele>218.84</ele>
        <time>2016-07-30T13:15:59Z</time>
      </trkpt>
      <trkpt lat="45.15521" lon="5.36233">
        <ele>218.84</ele>
        <time>2016-07-30T13:16:00Z</time>
      </trkpt>
      <trkpt lat="45.1552" lon="5.36241">
        <ele>218.84</ele>
        <time>2016-07-30T13:16:01Z</time>
      </trkpt>
      <trkpt lat="45.15518" lon="5.36247">
        <ele>218.84</ele>
        <time>2016-07-30T13:16:02Z</time>
      </trkpt>
      <trkpt lat="45.15515" lon="5.36254">
        <ele>218.84</ele>
        <time>2016-07-30T13:16:03Z</time>
      </trkpt>
      <trkpt lat="45.15471" lon="5.36367">
        <ele>221.24</ele>
        <time>2016-07-30T13:16:23Z</time>
      </trkpt>
      <trkpt lat="45.15426" lon="5.36484">
        <ele>221.24</ele>
        <time>2016-07-30T13:16:42Z</time>
      </trkpt>
      <trkpt lat="45.15388" lon="5.36584">
        <ele>222.68</ele>
        <time>2016-07-30T13:16:58Z</time>
      </trkpt>
      <trkpt lat="45.15361" lon="5.36691">
        <ele>226.05</ele>
        <time>2016-07-30T13:17:15Z</time>
      </trkpt>
      <trkpt lat="45.15372" lon="5.36791">
        <ele>227.49</ele>
        <time>2016-07-30T13:17:32Z</time>
      </trkpt>
      <trkpt lat="45.15392" lon="5.36923">
        <ele>229.41</ele>
        <time>2016-07-30T13:17:54Z</time>
      </trkpt>
      <trkpt lat="45.15408" lon="5.37029">
        <ele>230.85</ele>
        <time>2016-07-30T13:18:12Z</time>
      </trkpt>
      <trkpt lat="45.15427" lon="5.37161">
        <ele>232.3</ele>
        <time>2016-07-30T13:18:33Z</time>
      </trkpt>
      <trkpt lat="45.15447" lon="5.37313">
        <ele>235.18</ele>
        <time>2016-07-30T13:18:55Z</time>
      </trkpt>
      <trkpt lat="45.15468" lon="5.37448">
        <ele>236.14</ele>
        <time>2016-07-30T13:19:16Z</time>
      </trkpt>
      <trkpt lat="45.15471" lon="5.37476">
        <ele>234.7</ele>
        <time>2016-07-30T13:19:20Z</time>
      </trkpt>
      <trkpt lat="45.15493" lon="5.3763">
        <ele>235.18</ele>
        <time>2016-07-30T13:19:40Z</time>
      </trkpt>
      <trkpt lat="45.15503" lon="5.3776">
        <ele>234.7</ele>
        <time>2016-07-30T13:19:56Z</time>
      </trkpt>
      <trkpt lat="45.15505" lon="5.37768">
        <ele>234.7</ele>
        <time>2016-07-30T13:19:57Z</time>
      </trkpt>
      <trkpt lat="45.15507" lon="5.37776">
        <ele>234.7</ele>
        <time>2016-07-30T13:19:58Z</time>
      </trkpt>
      <trkpt lat="45.15509" lon="5.37782">
        <ele>234.7</ele>
        <time>2016-07-30T13:19:59Z</time>
      </trkpt>
      <trkpt lat="45.15512" lon="5.37788">
        <ele>234.7</ele>
        <time>2016-07-30T13:20:00Z</time>
      </trkpt>
      <trkpt lat="45.15515" lon="5.37795">
        <ele>234.7</ele>
        <time>2016-07-30T13:20:01Z</time>
      </trkpt>
      <trkpt lat="45.15518" lon="5.37803">
        <ele>234.7</ele>
        <time>2016-07-30T13:20:02Z</time>
      </trkpt>
      <trkpt lat="45.15522" lon="5.37819">
        <ele>234.7</ele>
        <time>2016-07-30T13:20:04Z</time>
      </trkpt>
      <trkpt lat="45.15531" lon="5.37876">
        <ele>235.18</ele>
        <time>2016-07-30T13:20:11Z</time>
      </trkpt>
      <trkpt lat="45.15549" lon="5.37999">
        <ele>237.58</ele>
        <time>2016-07-30T13:20:26Z</time>
      </trkpt>
      <trkpt lat="45.15554" lon="5.38031">
        <ele>235.66</ele>
        <time>2016-07-30T13:20:30Z</time>
      </trkpt>
      <trkpt lat="45.15559" lon="5.38164">
        <ele>236.14</ele>
        <time>2016-07-30T13:20:48Z</time>
      </trkpt>
      <trkpt lat="45.15558" lon="5.3817">
        <ele>236.14</ele>
        <time>2016-07-30T13:20:49Z</time>
      </trkpt>
      <trkpt lat="45.15555" lon="5.38195">
        <ele>236.62</ele>
        <time>2016-07-30T13:20:53Z</time>
      </trkpt>
      <trkpt lat="45.15555" lon="5.38219">
        <ele>237.58</ele>
        <time>2016-07-30T13:20:57Z</time>
      </trkpt>
      <trkpt lat="45.15556" lon="5.38225">
        <ele>238.54</ele>
        <time>2016-07-30T13:20:58Z</time>
      </trkpt>
      <trkpt lat="45.15562" lon="5.38253">
        <ele>239.02</ele>
        <time>2016-07-30T13:21:03Z</time>
      </trkpt>
      <trkpt lat="45.15585" lon="5.38304">
        <ele>240.95</ele>
        <time>2016-07-30T13:21:15Z</time>
      </trkpt>
      <trkpt lat="45.15584" lon="5.38311">
        <ele>241.43</ele>
        <time>2016-07-30T13:21:27Z</time>
      </trkpt>
      <trkpt lat="45.1558" lon="5.38306">
        <ele>241.91</ele>
        <time>2016-07-30T13:21:56Z</time>
      </trkpt>
    </trkseg>
  </trk>
</gpx>